Time,TemperatureF,DewpointF,PressureIn,WindDirection,WindDirectionDegrees,WindSpeedMPH,WindSpeedGustMPH,Humidity,HourlyPrecipIn,Conditions,Clouds,dailyrainin,SoftwareType,DateUTC
2013-06-26 00:01:00,56.5,53.6,29.89,NE,45,0.4,3.4,90,0.00,,,0.00,WUHU216HW,2013-06-26 07:01:00,
2013-06-26 00:02:00,56.5,53.6,29.89,ENE,68,0.4,3.4,90,0.00,,,0.00,WUHU216HW,2013-06-26 07:02:00,
2013-06-26 00:04:00,56.5,53.6,29.89,ESE,113,1.1,3.4,90,0.00,,,0.00,WUHU216HW,2013-06-26 07:04:00,
2013-06-26 00:06:00,56.5,53.6,29.89,ENE,68,1.8,3.4,90,0.00,,,0.00,WUHU216HW,2013-06-26 07:06:00,
2013-06-26 00:07:00,56.5,53.6,29.89,ESE,113,1.3,2.7,90,0.00,,,0.00,WUHU216HW,2013-06-26 07:07:00,
2013-06-26 00:09:00,56.5,53.6,29.89,East,90,2.5,2.7,90,0.00,,,0.00,WUHU216HW,2013-06-26 07:09:00,
2013-06-26 00:11:00,56.5,53.6,29.89,East,90,2.2,2.7,90,0.00,,,0.00,WUHU216HW,2013-06-26 07:11:00,
2013-06-26 00:12:00,56.5,53.6,29.89,ENE,68,1.1,2.7,90,0.00,,,0.00,WUHU216HW,2013-06-26 07:12:00,
2013-06-26 00:13:00,56.5,53.9,29.89,ENE,68,1.3,2.7,91,0.00,,,0.00,WUHU216HW,2013-06-26 07:13:00,
2013-06-26 00:14:00,56.5,53.6,29.90,ESE,113,2.0,2.7,90,0.00,,,0.00,WUHU216HW,2013-06-26 07:14:00,
2013-06-26 00:16:00,56.5,53.6,29.90,ESE,113,1.1,2.5,90,0.00,,,0.00,WUHU216HW,2013-06-26 07:16:00,
2013-06-26 00:18:00,56.5,53.6,29.90,NNE,23,1.3,2.5,90,0.00,,,0.00,WUHU216HW,2013-06-26 07:18:00,
2013-06-26 00:19:00,56.5,53.9,29.90,ENE,68,2.0,2.5,91,0.00,,,0.00,WUHU216HW,2013-06-26 07:19:00,
2013-06-26 00:21:00,56.5,53.9,29.90,East,90,1.1,2.5,91,0.00,,,0.00,WUHU216HW,2013-06-26 07:21:00,
2013-06-26 00:23:00,56.5,53.9,29.89,NE,45,1.6,2.5,91,0.00,,,0.00,WUHU216HW,2013-06-26 07:23:00,
2013-06-26 00:24:00,56.5,53.9,29.89,NE,45,0.4,2.5,91,0.00,,,0.00,WUHU216HW,2013-06-26 07:24:00,
2013-06-26 00:26:00,56.5,53.9,29.89,NNE,23,1.3,2.5,91,0.00,,,0.00,WUHU216HW,2013-06-26 07:26:00,
2013-06-26 00:27:00,56.5,53.9,29.89,NE,45,0.0,2.5,91,0.00,,,0.00,WUHU216HW,2013-06-26 07:27:00,
2013-06-26 00:28:00,56.5,53.9,29.89,NNE,23,0.0,2.5,91,0.00,,,0.00,WUHU216HW,2013-06-26 07:28:00,
2013-06-26 00:29:00,56.5,53.9,29.89,ENE,68,0.4,1.6,91,0.00,,,0.00,WUHU216HW,2013-06-26 07:29:00,
2013-06-26 00:32:00,56.5,53.9,29.89,SSE,158,0.2,1.6,91,0.00,,,0.00,WUHU216HW,2013-06-26 07:32:00,
2013-06-26 00:33:00,56.5,53.9,29.89,East,90,0.4,1.6,91,0.00,,,0.00,WUHU216HW,2013-06-26 07:33:00,
2013-06-26 00:34:00,56.5,53.9,29.89,ENE,68,0.9,1.6,91,0.00,,,0.00,WUHU216HW,2013-06-26 07:34:00,
2013-06-26 00:37:00,56.5,53.9,29.89,ENE,68,0.4,1.6,91,0.00,,,0.00,WUHU216HW,2013-06-26 07:37:00,
2013-06-26 00:38:00,56.5,53.9,29.89,ENE,68,0.0,1.6,91,0.00,,,0.00,WUHU216HW,2013-06-26 07:38:00,
2013-06-26 00:40:00,56.3,53.7,29.89,East,90,0.0,1.6,91,0.00,,,0.00,WUHU216HW,2013-06-26 07:40:00,
2013-06-26 00:42:00,56.3,53.7,29.89,North,0,0.0,1.6,91,0.00,,,0.00,WUHU216HW,2013-06-26 07:42:00,
2013-06-26 00:43:00,56.3,53.7,29.89,North,0,0.0,1.6,91,0.00,,,0.00,WUHU216HW,2013-06-26 07:43:00,
2013-06-26 00:44:00,56.3,53.7,29.89,North,0,0.0,1.6,91,0.00,,,0.00,WUHU216HW,2013-06-26 07:44:00,
2013-06-26 00:45:00,56.2,53.6,29.89,ESE,113,0.9,1.6,91,0.00,,,0.00,WUHU216HW,2013-06-26 07:45:00,
2013-06-26 00:47:00,56.2,53.6,29.89,ESE,113,1.1,1.3,91,0.00,,,0.00,WUHU216HW,2013-06-26 07:47:00,
2013-06-26 00:49:00,56.0,53.4,29.89,East,90,0.2,1.3,91,0.00,,,0.00,WUHU216HW,2013-06-26 07:49:00,
2013-06-26 00:50:00,56.0,53.4,29.89,ENE,68,0.0,1.3,91,0.00,,,0.00,WUHU216HW,2013-06-26 07:50:00,
2013-06-26 00:52:00,55.8,53.2,29.89,North,0,0.9,1.3,91,0.00,,,0.00,WUHU216HW,2013-06-26 07:52:00,
2013-06-26 00:54:00,55.8,53.2,29.89,North,0,0.0,1.3,91,0.00,,,0.00,WUHU216HW,2013-06-26 07:54:00,
2013-06-26 00:55:00,55.8,53.2,29.89,North,0,0.0,1.3,91,0.00,,,0.00,WUHU216HW,2013-06-26 07:55:00,
2013-06-26 00:57:00,55.8,53.2,29.89,North,0,0.0,0.9,91,0.00,,,0.00,WUHU216HW,2013-06-26 07:57:00,
2013-06-26 00:59:00,55.6,53.0,29.89,NNW,338,0.0,0.9,91,0.00,,,0.00,WUHU216HW,2013-06-26 07:59:00,
2013-06-26 01:00:00,55.6,53.0,29.89,North,0,0.9,0.9,91,0.00,,,0.00,WUHU216HW,2013-06-26 08:00:00,
2013-06-26 01:02:00,55.6,53.0,29.89,NNW,338,0.0,0.9,91,0.00,,,0.00,WUHU216HW,2013-06-26 08:02:00,
2013-06-26 01:04:00,55.4,52.8,29.89,ENE,68,0.0,0.9,91,0.00,,,0.00,WUHU216HW,2013-06-26 08:04:00,
2013-06-26 01:05:00,55.4,52.8,29.89,East,90,0.2,0.9,91,0.00,,,0.00,WUHU216HW,2013-06-26 08:05:00,
2013-06-26 01:07:00,55.4,52.8,29.89,ESE,113,0.0,0.9,91,0.00,,,0.00,WUHU216HW,2013-06-26 08:07:00,
2013-06-26 01:09:00,55.4,52.8,29.89,NNW,338,0.0,0.9,91,0.00,,,0.00,WUHU216HW,2013-06-26 08:09:00,
2013-06-26 01:10:00,55.4,52.8,29.89,NNW,338,0.0,0.9,91,0.00,,,0.00,WUHU216HW,2013-06-26 08:10:00,
2013-06-26 01:11:00,55.4,52.8,29.89,NNW,338,0.0,0.7,91,0.00,,,0.00,WUHU216HW,2013-06-26 08:11:00,
2013-06-26 01:13:00,55.4,52.8,29.89,NNE,23,1.1,1.3,91,0.00,,,0.00,WUHU216HW,2013-06-26 08:13:00,
2013-06-26 01:15:00,55.3,52.7,29.89,North,0,1.6,1.8,91,0.00,,,0.00,WUHU216HW,2013-06-26 08:15:00,
2013-06-26 01:16:00,55.3,52.7,29.89,North,0,0.4,1.8,91,0.00,,,0.00,WUHU216HW,2013-06-26 08:16:00,
2013-06-26 01:18:00,55.4,52.8,29.89,North,0,0.0,1.8,91,0.00,,,0.00,WUHU216HW,2013-06-26 08:18:00,
2013-06-26 01:20:00,55.4,52.8,29.89,ENE,68,0.0,1.8,91,0.00,,,0.00,WUHU216HW,2013-06-26 08:20:00,
2013-06-26 01:21:00,55.4,52.8,29.89,NE,45,0.0,1.8,91,0.00,,,0.00,WUHU216HW,2013-06-26 08:21:00,
2013-06-26 01:23:00,55.4,52.8,29.89,NE,45,0.0,1.8,91,0.00,,,0.00,WUHU216HW,2013-06-26 08:23:00,
2013-06-26 01:25:00,55.4,52.8,29.89,NE,45,0.0,1.1,91,0.00,,,0.00,WUHU216HW,2013-06-26 08:25:00,
2013-06-26 01:26:00,55.4,52.8,29.89,NE,45,0.0,1.1,91,0.00,,,0.00,WUHU216HW,2013-06-26 08:26:00,
2013-06-26 01:28:00,55.3,52.7,29.89,ENE,68,0.2,1.8,91,0.00,,,0.00,WUHU216HW,2013-06-26 08:28:00,
2013-06-26 01:30:00,55.4,52.8,29.89,ENE,68,0.0,1.8,91,0.00,,,0.00,WUHU216HW,2013-06-26 08:30:00,
2013-06-26 01:31:00,55.4,52.8,29.89,ENE,68,0.0,1.8,91,0.00,,,0.00,WUHU216HW,2013-06-26 08:31:00,
2013-06-26 01:33:00,55.4,52.8,29.89,WSW,248,0.0,1.8,91,0.00,,,0.00,WUHU216HW,2013-06-26 08:33:00,
2013-06-26 01:35:00,55.4,52.8,29.89,WSW,248,0.0,1.8,91,0.00,,,0.00,WUHU216HW,2013-06-26 08:35:00,
2013-06-26 01:36:00,55.4,52.8,29.89,WSW,248,0.0,1.8,91,0.00,,,0.00,WUHU216HW,2013-06-26 08:36:00,
2013-06-26 01:39:00,55.4,52.8,29.88,NNE,23,0.0,1.1,91,0.00,,,0.00,WUHU216HW,2013-06-26 08:39:00,
2013-06-26 01:40:00,55.4,52.8,29.88,SW,225,0.0,1.1,91,0.00,,,0.00,WUHU216HW,2013-06-26 08:40:00,
2013-06-26 01:41:00,55.4,52.8,29.88,WSW,248,0.2,1.1,91,0.00,,,0.00,WUHU216HW,2013-06-26 08:41:00,
2013-06-26 01:44:00,55.6,53.0,29.89,SSW,203,2.2,2.5,91,0.00,,,0.00,WUHU216HW,2013-06-26 08:44:00,
2013-06-26 01:45:00,55.8,53.5,29.89,South,180,0.0,2.5,92,0.00,,,0.00,WUHU216HW,2013-06-26 08:45:00,
2013-06-26 01:46:00,55.8,53.5,29.89,South,180,0.0,2.5,92,0.00,,,0.00,WUHU216HW,2013-06-26 08:46:00,
2013-06-26 01:47:00,55.8,53.2,29.89,SSW,203,1.8,2.5,91,0.00,,,0.00,WUHU216HW,2013-06-26 08:47:00,
2013-06-26 01:49:00,56.0,53.4,29.89,ESE,113,0.4,2.5,91,0.00,,,0.00,WUHU216HW,2013-06-26 08:49:00,
2013-06-26 01:50:00,56.0,53.4,29.89,East,90,0.0,2.5,91,0.00,,,0.00,WUHU216HW,2013-06-26 08:50:00,
2013-06-26 01:51:00,56.0,53.4,29.89,East,90,0.0,2.5,91,0.00,,,0.00,WUHU216HW,2013-06-26 08:51:00,
2013-06-26 01:52:00,56.0,53.4,29.89,SE,135,0.0,2.5,91,0.00,,,0.00,WUHU216HW,2013-06-26 08:52:00,
2013-06-26 01:54:00,56.0,53.4,29.89,ESE,113,0.0,2.5,91,0.00,,,0.00,WUHU216HW,2013-06-26 08:54:00,
2013-06-26 01:56:00,56.0,53.4,29.89,ESE,113,0.0,2.5,91,0.00,,,0.00,WUHU216HW,2013-06-26 08:56:00,
2013-06-26 01:57:00,56.0,53.4,29.89,SE,135,0.0,1.8,91,0.00,,,0.00,WUHU216HW,2013-06-26 08:57:00,
2013-06-26 01:59:00,56.0,53.4,29.89,SE,135,2.0,2.0,91,0.00,,,0.00,WUHU216HW,2013-06-26 08:59:00,
2013-06-26 02:01:00,56.0,53.4,29.89,ENE,68,1.6,2.0,91,0.00,,,0.00,WUHU216HW,2013-06-26 09:01:00,
2013-06-26 02:02:00,55.8,53.2,29.89,East,90,1.1,2.2,91,0.00,,,0.00,WUHU216HW,2013-06-26 09:02:00,
2013-06-26 02:05:00,56.2,53.8,29.89,ENE,68,1.8,2.2,92,0.00,,,0.00,WUHU216HW,2013-06-26 09:05:00,
2013-06-26 02:06:00,56.2,53.8,29.89,NNE,23,1.3,2.2,92,0.00,,,0.00,WUHU216HW,2013-06-26 09:06:00,
2013-06-26 02:07:00,56.2,53.8,29.89,SSW,203,0.4,2.2,92,0.00,,,0.00,WUHU216HW,2013-06-26 09:07:00,
2013-06-26 02:11:00,56.2,53.8,29.89,ESE,113,0.4,2.5,92,0.00,,,0.00,WUHU216HW,2013-06-26 09:11:00,
2013-06-26 02:12:00,56.2,53.8,29.89,SSW,203,1.1,2.5,92,0.00,,,0.00,WUHU216HW,2013-06-26 09:12:00,
2013-06-26 02:13:00,56.2,53.8,29.89,SE,135,1.1,2.5,92,0.00,,,0.00,WUHU216HW,2013-06-26 09:13:00,
2013-06-26 02:16:00,56.2,53.8,29.89,SSE,158,1.1,2.5,92,0.00,,,0.00,WUHU216HW,2013-06-26 09:16:00,
2013-06-26 02:17:00,56.2,53.8,29.89,South,180,1.8,2.5,92,0.00,,,0.00,WUHU216HW,2013-06-26 09:17:00,
2013-06-26 02:18:00,56.2,53.8,29.89,South,180,1.3,2.5,92,0.00,,,0.00,WUHU216HW,2013-06-26 09:18:00,
2013-06-26 02:21:00,56.3,54.0,29.89,SSE,158,1.1,2.5,92,0.00,,,0.00,WUHU216HW,2013-06-26 09:21:00,
2013-06-26 02:22:00,56.3,54.0,29.89,SSW,203,1.8,2.7,92,0.00,,,0.00,WUHU216HW,2013-06-26 09:22:00,
2013-06-26 02:23:00,56.3,54.0,29.89,SE,135,1.1,2.7,92,0.00,,,0.00,WUHU216HW,2013-06-26 09:23:00,
2013-06-26 02:26:00,56.3,54.0,29.89,South,180,1.8,2.7,92,0.00,,,0.00,WUHU216HW,2013-06-26 09:26:00,
2013-06-26 02:27:00,56.3,54.0,29.89,SSE,158,2.2,2.7,92,0.00,,,0.00,WUHU216HW,2013-06-26 09:27:00,
2013-06-26 02:28:00,56.3,54.0,29.89,SSW,203,0.4,2.7,92,0.00,,,0.00,WUHU216HW,2013-06-26 09:28:00,
2013-06-26 02:31:00,56.5,54.2,29.89,South,180,3.8,3.8,92,0.00,,,0.00,WUHU216HW,2013-06-26 09:31:00,
2013-06-26 02:32:00,56.5,54.2,29.89,SSW,203,3.1,3.8,92,0.00,,,0.00,WUHU216HW,2013-06-26 09:32:00,
2013-06-26 02:33:00,56.5,54.2,29.89,SSE,158,2.9,3.8,92,0.00,,,0.00,WUHU216HW,2013-06-26 09:33:00,
2013-06-26 02:34:00,56.5,54.2,29.89,SSE,158,2.7,3.8,92,0.00,,,0.00,WUHU216HW,2013-06-26 09:34:00,
2013-06-26 02:37:00,56.5,54.2,29.89,South,180,4.5,4.5,92,0.00,,,0.00,WUHU216HW,2013-06-26 09:37:00,
2013-06-26 02:38:00,56.5,54.2,29.89,NE,45,1.1,4.5,92,0.00,,,0.00,WUHU216HW,2013-06-26 09:38:00,
2013-06-26 02:39:00,56.5,54.2,29.89,NE,45,1.1,4.5,92,0.00,,,0.00,WUHU216HW,2013-06-26 09:39:00,
2013-06-26 02:42:00,56.7,54.4,29.89,South,180,3.8,4.5,92,0.00,,,0.00,WUHU216HW,2013-06-26 09:42:00,
2013-06-26 02:44:00,56.7,54.4,29.89,ESE,113,0.4,4.5,92,0.00,,,0.00,WUHU216HW,2013-06-26 09:44:00,
2013-06-26 02:47:00,56.7,54.4,29.90,ENE,68,0.7,4.5,92,0.00,,,0.00,WUHU216HW,2013-06-26 09:47:00,
2013-06-26 02:48:00,56.7,54.4,29.90,ENE,68,0.9,3.8,92,0.00,,,0.00,WUHU216HW,2013-06-26 09:48:00,
2013-06-26 02:49:00,56.7,54.4,29.90,ENE,68,1.1,3.8,92,0.00,,,0.00,WUHU216HW,2013-06-26 09:49:00,
2013-06-26 02:52:00,56.7,54.4,29.90,North,0,0.7,2.7,92,0.00,,,0.00,WUHU216HW,2013-06-26 09:52:00,
2013-06-26 02:53:00,56.7,54.4,29.90,NNE,23,0.0,2.7,92,0.00,,,0.00,WUHU216HW,2013-06-26 09:53:00,
2013-06-26 02:54:00,56.7,54.4,29.90,ENE,68,0.9,1.8,92,0.00,,,0.00,WUHU216HW,2013-06-26 09:54:00,
2013-06-26 02:57:00,56.7,54.4,29.90,NNE,23,0.7,1.8,92,0.00,,,0.00,WUHU216HW,2013-06-26 09:57:00,
2013-06-26 02:58:00,56.7,54.4,29.90,ENE,68,1.1,1.8,92,0.00,,,0.00,WUHU216HW,2013-06-26 09:58:00,
2013-06-26 02:59:00,56.7,54.4,29.90,East,90,0.4,1.8,92,0.00,,,0.00,WUHU216HW,2013-06-26 09:59:00,
2013-06-26 03:00:00,56.7,54.4,29.90,ENE,68,0.7,1.6,92,0.01,,,0.01,WUHU216HW,2013-06-26 10:00:00,
2013-06-26 03:02:00,56.7,54.4,29.90,ENE,68,0.0,1.6,92,0.01,,,0.01,WUHU216HW,2013-06-26 10:02:00,
2013-06-26 03:03:00,56.7,54.4,29.90,ENE,68,0.0,1.6,92,0.01,,,0.01,WUHU216HW,2013-06-26 10:03:00,
2013-06-26 03:04:00,56.7,54.4,29.90,ENE,68,0.0,1.6,92,0.01,,,0.01,WUHU216HW,2013-06-26 10:04:00,
2013-06-26 03:05:00,56.7,54.4,29.90,ENE,68,0.4,1.1,92,0.01,,,0.01,WUHU216HW,2013-06-26 10:05:00,
2013-06-26 03:07:00,56.7,54.4,29.90,ENE,68,1.1,1.6,92,0.01,,,0.01,WUHU216HW,2013-06-26 10:07:00,
2013-06-26 03:08:00,56.7,54.4,29.90,ENE,68,1.1,1.6,92,0.01,,,0.01,WUHU216HW,2013-06-26 10:08:00,
2013-06-26 03:09:00,56.7,54.4,29.90,NE,45,0.4,1.6,92,0.01,,,0.01,WUHU216HW,2013-06-26 10:09:00,
2013-06-26 03:10:00,56.7,54.4,29.90,North,0,0.0,1.6,92,0.02,,,0.02,WUHU216HW,2013-06-26 10:10:00,
2013-06-26 03:13:00,56.7,54.4,29.90,NNE,23,0.9,1.6,92,0.02,,,0.02,WUHU216HW,2013-06-26 10:13:00,
2013-06-26 03:14:00,56.7,54.4,29.90,NNE,23,0.0,1.6,92,0.02,,,0.02,WUHU216HW,2013-06-26 10:14:00,
2013-06-26 03:15:00,56.7,54.4,29.90,NE,45,0.2,1.6,92,0.02,,,0.02,WUHU216HW,2013-06-26 10:15:00,
2013-06-26 03:18:00,56.7,54.4,29.90,ENE,68,0.4,1.3,92,0.02,,,0.02,WUHU216HW,2013-06-26 10:18:00,
2013-06-26 03:19:00,56.5,54.2,29.90,East,90,1.8,1.8,92,0.02,,,0.02,WUHU216HW,2013-06-26 10:19:00,
2013-06-26 03:20:00,56.5,54.2,29.90,NE,45,0.9,1.8,92,0.02,,,0.02,WUHU216HW,2013-06-26 10:20:00,
2013-06-26 03:23:00,56.5,54.2,29.90,NE,45,0.4,1.8,92,0.02,,,0.02,WUHU216HW,2013-06-26 10:23:00,
2013-06-26 03:24:00,56.7,54.4,29.90,East,90,1.1,1.8,92,0.02,,,0.02,WUHU216HW,2013-06-26 10:24:00,
2013-06-26 03:25:00,56.5,54.2,29.90,ESE,113,0.0,1.8,92,0.02,,,0.02,WUHU216HW,2013-06-26 10:25:00,
2013-06-26 03:28:00,56.5,54.2,29.90,ENE,68,0.0,1.8,92,0.02,,,0.02,WUHU216HW,2013-06-26 10:28:00,
2013-06-26 03:29:00,56.5,54.2,29.90,ENE,68,0.0,1.8,92,0.02,,,0.02,WUHU216HW,2013-06-26 10:29:00,
2013-06-26 03:30:00,56.5,54.2,29.90,ENE,68,0.0,1.3,92,0.02,,,0.02,WUHU216HW,2013-06-26 10:30:00,
2013-06-26 03:33:00,56.5,54.2,29.91,East,90,0.0,1.3,92,0.02,,,0.02,WUHU216HW,2013-06-26 10:33:00,
2013-06-26 03:34:00,56.5,54.2,29.90,ENE,68,1.6,1.6,92,0.02,,,0.02,WUHU216HW,2013-06-26 10:34:00,
2013-06-26 03:35:00,56.5,54.2,29.91,ENE,68,0.4,1.6,92,0.02,,,0.02,WUHU216HW,2013-06-26 10:35:00,
2013-06-26 03:36:00,56.5,54.2,29.91,East,90,0.9,1.6,92,0.02,,,0.02,WUHU216HW,2013-06-26 10:36:00,
2013-06-26 03:38:00,56.5,54.2,29.91,ENE,68,0.9,1.6,92,0.02,,,0.02,WUHU216HW,2013-06-26 10:38:00,
2013-06-26 03:39:00,56.5,54.2,29.91,NE,45,1.8,1.8,92,0.02,,,0.02,WUHU216HW,2013-06-26 10:39:00,
2013-06-26 03:40:00,56.5,54.2,29.91,NNE,23,1.8,1.8,92,0.02,,,0.02,WUHU216HW,2013-06-26 10:40:00,
2013-06-26 03:41:00,56.7,54.4,29.91,ENE,68,0.9,1.8,92,0.02,,,0.02,WUHU216HW,2013-06-26 10:41:00,
2013-06-26 03:43:00,56.7,54.4,29.91,ENE,68,0.9,1.8,92,0.02,,,0.02,WUHU216HW,2013-06-26 10:43:00,
2013-06-26 03:44:00,56.7,54.4,29.91,ENE,68,1.1,1.8,92,0.02,,,0.02,WUHU216HW,2013-06-26 10:44:00,
2013-06-26 03:45:00,56.7,54.4,29.91,ENE,68,1.8,1.8,92,0.02,,,0.02,WUHU216HW,2013-06-26 10:45:00,
2013-06-26 03:46:00,56.7,54.4,29.91,East,90,0.7,1.8,92,0.02,,,0.02,WUHU216HW,2013-06-26 10:46:00,
2013-06-26 03:49:00,56.7,54.4,29.91,ENE,68,1.1,1.8,92,0.02,,,0.02,WUHU216HW,2013-06-26 10:49:00,
2013-06-26 03:50:00,56.7,54.4,29.91,SE,135,2.5,2.5,92,0.02,,,0.02,WUHU216HW,2013-06-26 10:50:00,
2013-06-26 03:51:00,56.7,54.4,29.91,ENE,68,1.1,2.5,92,0.02,,,0.02,WUHU216HW,2013-06-26 10:51:00,
2013-06-26 03:54:00,56.9,54.5,29.91,NE,45,1.3,2.5,92,0.02,,,0.02,WUHU216HW,2013-06-26 10:54:00,
2013-06-26 03:55:00,56.9,54.5,29.91,East,90,1.3,2.5,92,0.02,,,0.02,WUHU216HW,2013-06-26 10:55:00,
2013-06-26 03:56:00,56.7,54.4,29.91,ESE,113,1.6,2.5,92,0.01,,,0.02,WUHU216HW,2013-06-26 10:56:00,
2013-06-26 03:57:00,56.9,54.5,29.91,East,90,0.4,2.5,92,0.01,,,0.02,WUHU216HW,2013-06-26 10:57:00,
2013-06-26 03:59:00,56.9,54.5,29.91,ENE,68,0.2,2.5,92,0.01,,,0.02,WUHU216HW,2013-06-26 10:59:00,
2013-06-26 04:00:00,56.9,54.5,29.91,ENE,68,0.0,2.5,92,0.01,,,0.02,WUHU216HW,2013-06-26 11:00:00,
2013-06-26 04:01:00,56.9,54.5,29.91,East,90,0.4,2.0,92,0.01,,,0.02,WUHU216HW,2013-06-26 11:01:00,
2013-06-26 04:02:00,56.9,54.5,29.91,NE,45,0.4,2.0,92,0.01,,,0.02,WUHU216HW,2013-06-26 11:02:00,
2013-06-26 04:04:00,56.9,54.5,29.91,ENE,68,0.9,1.8,92,0.01,,,0.02,WUHU216HW,2013-06-26 11:04:00,
2013-06-26 04:05:00,56.9,54.5,29.91,ENE,68,1.8,1.8,92,0.01,,,0.02,WUHU216HW,2013-06-26 11:05:00,
2013-06-26 04:06:00,56.9,54.5,29.91,SE,135,1.6,1.8,92,0.01,,,0.02,WUHU216HW,2013-06-26 11:06:00,
2013-06-26 04:07:00,56.9,54.5,29.91,ENE,68,0.9,1.8,92,0.01,,,0.02,WUHU216HW,2013-06-26 11:07:00,
2013-06-26 04:09:00,56.9,54.5,29.91,East,90,1.6,2.7,92,0.00,,,0.02,WUHU216HW,2013-06-26 11:09:00,
2013-06-26 04:10:00,56.9,54.5,29.91,SSE,158,1.1,2.7,92,0.00,,,0.02,WUHU216HW,2013-06-26 11:10:00,
2013-06-26 04:11:00,56.9,54.5,29.91,NE,45,1.8,2.7,92,0.00,,,0.02,WUHU216HW,2013-06-26 11:11:00,
2013-06-26 04:12:00,56.9,54.5,29.91,ENE,68,1.6,2.7,92,0.00,,,0.02,WUHU216HW,2013-06-26 11:12:00,
2013-06-26 04:14:00,57.1,54.7,29.91,ESE,113,1.3,2.7,92,0.00,,,0.02,WUHU216HW,2013-06-26 11:14:00,
2013-06-26 04:15:00,56.9,54.5,29.91,East,90,1.6,2.7,92,0.00,,,0.02,WUHU216HW,2013-06-26 11:15:00,
2013-06-26 04:16:00,57.1,54.7,29.91,ENE,68,1.3,2.7,92,0.00,,,0.02,WUHU216HW,2013-06-26 11:16:00,
2013-06-26 04:17:00,57.1,54.7,29.91,ENE,68,1.1,2.7,92,0.00,,,0.02,WUHU216HW,2013-06-26 11:17:00,
2013-06-26 04:19:00,57.1,54.7,29.91,ENE,68,0.9,1.8,92,0.00,,,0.02,WUHU216HW,2013-06-26 11:19:00,
2013-06-26 04:20:00,57.1,54.7,29.91,ESE,113,1.1,1.8,92,0.00,,,0.02,WUHU216HW,2013-06-26 11:20:00,
2013-06-26 04:21:00,57.1,54.7,29.91,ENE,68,0.7,1.8,92,0.00,,,0.02,WUHU216HW,2013-06-26 11:21:00,
2013-06-26 04:22:00,57.1,54.7,29.91,ENE,68,0.4,1.8,92,0.00,,,0.02,WUHU216HW,2013-06-26 11:22:00,
2013-06-26 04:25:00,57.1,54.7,29.91,ENE,68,0.7,1.8,92,0.00,,,0.02,WUHU216HW,2013-06-26 11:25:00,
2013-06-26 04:26:00,57.1,54.7,29.91,North,0,2.2,2.2,92,0.00,,,0.02,WUHU216HW,2013-06-26 11:26:00,
2013-06-26 04:27:00,57.1,54.7,29.91,NE,45,3.4,3.4,92,0.00,,,0.02,WUHU216HW,2013-06-26 11:27:00,
2013-06-26 04:30:00,57.2,54.9,29.90,North,0,0.0,3.4,92,0.00,,,0.02,WUHU216HW,2013-06-26 11:30:00,
2013-06-26 04:31:00,57.2,54.9,29.90,North,0,0.0,3.4,92,0.00,,,0.02,WUHU216HW,2013-06-26 11:31:00,
2013-06-26 04:32:00,57.2,54.9,29.90,NW,315,0.0,3.4,92,0.00,,,0.02,WUHU216HW,2013-06-26 11:32:00,
2013-06-26 04:35:00,57.2,54.9,29.91,NNE,23,0.4,3.4,92,0.00,,,0.02,WUHU216HW,2013-06-26 11:35:00,
2013-06-26 04:36:00,57.2,54.9,29.90,NNE,23,0.0,3.4,92,0.00,,,0.02,WUHU216HW,2013-06-26 11:36:00,
2013-06-26 04:37:00,57.2,54.9,29.90,NNE,23,0.0,2.2,92,0.00,,,0.02,WUHU216HW,2013-06-26 11:37:00,
2013-06-26 04:40:00,57.2,54.9,29.91,ESE,113,0.0,0.9,92,0.00,,,0.02,WUHU216HW,2013-06-26 11:40:00,
2013-06-26 04:41:00,57.2,54.9,29.91,ESE,113,0.0,0.9,92,0.00,,,0.02,WUHU216HW,2013-06-26 11:41:00,
2013-06-26 04:42:00,57.2,54.9,29.91,ESE,113,0.0,0.9,92,0.00,,,0.02,WUHU216HW,2013-06-26 11:42:00,
2013-06-26 04:45:00,57.2,54.9,29.90,ENE,68,0.0,0.4,92,0.00,,,0.02,WUHU216HW,2013-06-26 11:45:00,
2013-06-26 04:46:00,57.2,54.9,29.91,ENE,68,0.4,0.7,92,0.00,,,0.02,WUHU216HW,2013-06-26 11:46:00,
2013-06-26 04:47:00,57.2,54.9,29.90,ENE,68,0.7,1.1,92,0.00,,,0.02,WUHU216HW,2013-06-26 11:47:00,
2013-06-26 04:50:00,57.2,54.9,29.90,ENE,68,0.0,1.1,92,0.00,,,0.02,WUHU216HW,2013-06-26 11:50:00,
2013-06-26 04:51:00,57.2,54.9,29.90,ENE,68,0.0,1.1,92,0.00,,,0.02,WUHU216HW,2013-06-26 11:51:00,
2013-06-26 04:53:00,57.1,54.7,29.91,East,90,0.4,1.1,92,0.00,,,0.02,WUHU216HW,2013-06-26 11:53:00,
2013-06-26 04:54:00,57.1,54.7,29.91,East,90,0.0,1.1,92,0.00,,,0.02,WUHU216HW,2013-06-26 11:54:00,
2013-06-26 04:55:00,57.1,54.7,29.91,ENE,68,0.0,1.1,92,0.00,,,0.02,WUHU216HW,2013-06-26 11:55:00,
2013-06-26 04:56:00,57.1,54.7,29.90,East,90,0.0,1.1,92,0.00,,,0.02,WUHU216HW,2013-06-26 11:56:00,
2013-06-26 04:58:00,57.1,54.7,29.90,NE,45,1.1,1.1,92,0.00,,,0.02,WUHU216HW,2013-06-26 11:58:00,
2013-06-26 05:00:00,57.1,54.7,29.90,ENE,68,0.4,1.3,92,0.00,,,0.02,WUHU216HW,2013-06-26 12:00:00,
2013-06-26 05:01:00,56.9,54.5,29.90,ENE,68,0.0,1.3,92,0.00,,,0.02,WUHU216HW,2013-06-26 12:01:00,
2013-06-26 05:02:00,57.1,54.7,29.91,ENE,68,0.0,1.3,92,0.00,,,0.02,WUHU216HW,2013-06-26 12:02:00,
2013-06-26 05:03:00,57.1,54.7,29.91,ENE,68,0.0,1.3,92,0.00,,,0.02,WUHU216HW,2013-06-26 12:03:00,
2013-06-26 05:05:00,57.1,54.7,29.91,ENE,68,0.0,1.3,92,0.00,,,0.02,WUHU216HW,2013-06-26 12:05:00,
2013-06-26 05:06:00,57.1,54.7,29.91,ENE,68,0.0,1.3,92,0.00,,,0.02,WUHU216HW,2013-06-26 12:06:00,
2013-06-26 05:07:00,56.9,54.5,29.91,ENE,68,0.0,1.3,92,0.00,,,0.02,WUHU216HW,2013-06-26 12:07:00,
2013-06-26 05:08:00,57.1,54.7,29.91,ENE,68,0.0,1.3,92,0.00,,,0.02,WUHU216HW,2013-06-26 12:08:00,
2013-06-26 05:10:00,56.9,54.5,29.91,ENE,68,0.0,0.2,92,0.00,,,0.02,WUHU216HW,2013-06-26 12:10:00,
2013-06-26 05:11:00,56.9,54.5,29.91,ENE,68,0.0,0.2,92,0.00,,,0.02,WUHU216HW,2013-06-26 12:11:00,
2013-06-26 05:12:00,56.9,54.5,29.91,ENE,68,0.0,0.0,92,0.00,,,0.02,WUHU216HW,2013-06-26 12:12:00,
2013-06-26 05:13:00,56.9,54.5,29.91,NE,45,0.0,0.0,92,0.00,,,0.02,WUHU216HW,2013-06-26 12:13:00,
2013-06-26 05:15:00,56.9,54.5,29.90,NNE,23,0.7,0.9,92,0.00,,,0.02,WUHU216HW,2013-06-26 12:15:00,
2013-06-26 05:16:00,56.9,54.5,29.90,NNE,23,0.7,0.9,92,0.00,,,0.02,WUHU216HW,2013-06-26 12:16:00,
2013-06-26 05:17:00,56.9,54.5,29.90,NE,45,0.7,0.9,92,0.00,,,0.02,WUHU216HW,2013-06-26 12:17:00,
2013-06-26 05:18:00,56.9,54.5,29.90,NE,45,0.2,0.9,92,0.00,,,0.02,WUHU216HW,2013-06-26 12:18:00,
2013-06-26 05:19:00,56.9,54.5,29.90,East,90,0.0,0.9,92,0.00,,,0.02,WUHU216HW,2013-06-26 12:19:00,
2013-06-26 05:21:00,57.1,54.7,29.91,ENE,68,0.4,0.9,92,0.00,,,0.02,WUHU216HW,2013-06-26 12:21:00,
2013-06-26 05:22:00,56.9,54.5,29.90,ENE,68,0.0,0.9,92,0.00,,,0.02,WUHU216HW,2013-06-26 12:22:00,
2013-06-26 05:23:00,56.9,54.5,29.91,ENE,68,0.0,0.9,92,0.00,,,0.02,WUHU216HW,2013-06-26 12:23:00,
2013-06-26 05:24:00,56.9,54.5,29.91,ENE,68,0.9,1.1,92,0.00,,,0.02,WUHU216HW,2013-06-26 12:24:00,
2013-06-26 05:26:00,56.9,54.5,29.91,East,90,0.0,1.1,92,0.00,,,0.02,WUHU216HW,2013-06-26 12:26:00,
2013-06-26 05:27:00,56.9,54.5,29.91,East,90,0.7,2.0,92,0.00,,,0.02,WUHU216HW,2013-06-26 12:27:00,
2013-06-26 05:28:00,56.9,54.5,29.91,ENE,68,0.9,2.0,92,0.00,,,0.02,WUHU216HW,2013-06-26 12:28:00,
2013-06-26 05:29:00,57.1,54.7,29.91,SE,135,1.1,2.0,92,0.00,,,0.02,WUHU216HW,2013-06-26 12:29:00,
2013-06-26 05:31:00,57.1,54.7,29.91,SE,135,0.0,2.0,92,0.00,,,0.02,WUHU216HW,2013-06-26 12:31:00,
2013-06-26 05:32:00,56.9,54.5,29.91,SSW,203,0.4,2.0,92,0.00,,,0.02,WUHU216HW,2013-06-26 12:32:00,
2013-06-26 05:34:00,57.1,54.7,29.91,SSE,158,0.0,2.0,92,0.00,,,0.02,WUHU216HW,2013-06-26 12:34:00,
2013-06-26 05:36:00,57.1,54.7,29.91,South,180,1.1,1.1,92,0.00,,,0.02,WUHU216HW,2013-06-26 12:36:00,
2013-06-26 05:37:00,57.1,54.7,29.91,ESE,113,0.7,1.1,92,0.00,,,0.02,WUHU216HW,2013-06-26 12:37:00,
2013-06-26 05:39:00,57.1,54.7,29.91,SE,135,0.0,1.8,92,0.00,,,0.02,WUHU216HW,2013-06-26 12:39:00,
2013-06-26 05:41:00,57.1,54.7,29.91,SE,135,0.0,1.8,92,0.00,,,0.02,WUHU216HW,2013-06-26 12:41:00,
2013-06-26 05:42:00,57.1,54.7,29.91,SE,135,0.0,1.8,92,0.00,,,0.02,WUHU216HW,2013-06-26 12:42:00,
2013-06-26 05:43:00,57.2,54.9,29.91,SSE,158,1.3,1.8,92,0.00,,,0.02,WUHU216HW,2013-06-26 12:43:00,
2013-06-26 05:44:00,57.2,54.9,29.91,SE,135,0.4,1.8,92,0.00,,,0.02,WUHU216HW,2013-06-26 12:44:00,
2013-06-26 05:47:00,57.2,54.9,29.91,SE,135,0.0,1.8,92,0.00,,,0.02,WUHU216HW,2013-06-26 12:47:00,
2013-06-26 05:48:00,57.2,54.9,29.91,SE,135,0.0,1.8,92,0.00,,,0.02,WUHU216HW,2013-06-26 12:48:00,
2013-06-26 05:49:00,57.2,54.9,29.91,SE,135,0.0,1.3,92,0.00,,,0.02,WUHU216HW,2013-06-26 12:49:00,
2013-06-26 05:50:00,57.2,54.9,29.91,SE,135,0.0,1.3,92,0.01,,,0.03,WUHU216HW,2013-06-26 12:50:00,
2013-06-26 05:52:00,57.2,54.9,29.91,NNE,23,0.4,1.8,92,0.01,,,0.03,WUHU216HW,2013-06-26 12:52:00,
2013-06-26 05:53:00,57.2,54.9,29.91,NNE,23,0.0,1.8,92,0.01,,,0.03,WUHU216HW,2013-06-26 12:53:00,
2013-06-26 05:54:00,57.2,54.9,29.91,NNE,23,0.0,1.8,92,0.01,,,0.03,WUHU216HW,2013-06-26 12:54:00,
2013-06-26 05:55:00,57.2,54.9,29.91,NE,45,0.0,1.8,92,0.01,,,0.03,WUHU216HW,2013-06-26 12:55:00,
2013-06-26 05:57:00,57.2,54.9,29.92,ESE,113,0.0,1.8,92,0.01,,,0.03,WUHU216HW,2013-06-26 12:57:00,
2013-06-26 05:58:00,57.2,54.9,29.91,ENE,68,0.9,1.8,92,0.01,,,0.03,WUHU216HW,2013-06-26 12:58:00,
2013-06-26 05:59:00,57.2,54.9,29.91,ENE,68,1.1,1.8,92,0.01,,,0.03,WUHU216HW,2013-06-26 12:59:00,
2013-06-26 06:00:00,57.2,54.9,29.91,NE,45,0.4,1.8,92,0.01,,,0.03,WUHU216HW,2013-06-26 13:00:00,
2013-06-26 06:02:00,57.2,54.9,29.91,NE,45,0.2,1.3,92,0.02,,,0.04,WUHU216HW,2013-06-26 13:02:00,
2013-06-26 06:03:00,57.2,54.9,29.91,NE,45,0.0,1.3,92,0.02,,,0.04,WUHU216HW,2013-06-26 13:03:00,
2013-06-26 06:04:00,57.2,54.9,29.91,NE,45,0.0,1.3,92,0.02,,,0.04,WUHU216HW,2013-06-26 13:04:00,
2013-06-26 06:05:00,57.2,54.9,29.92,NE,45,0.0,1.3,92,0.02,,,0.04,WUHU216HW,2013-06-26 13:05:00,
2013-06-26 06:07:00,57.2,54.9,29.92,NE,45,0.0,1.3,92,0.02,,,0.04,WUHU216HW,2013-06-26 13:07:00,
2013-06-26 06:08:00,57.2,54.9,29.92,NE,45,0.0,1.3,92,0.02,,,0.04,WUHU216HW,2013-06-26 13:08:00,
2013-06-26 06:10:00,57.2,54.9,29.91,NE,45,0.0,1.3,92,0.02,,,0.04,WUHU216HW,2013-06-26 13:10:00,
2013-06-26 06:12:00,57.2,54.9,29.92,ENE,68,0.0,0.0,92,0.02,,,0.04,WUHU216HW,2013-06-26 13:12:00,
2013-06-26 06:13:00,57.2,54.9,29.92,NW,315,0.0,0.0,92,0.02,,,0.04,WUHU216HW,2013-06-26 13:13:00,
2013-06-26 06:15:00,57.2,54.9,29.92,NW,315,0.0,0.0,92,0.02,,,0.04,WUHU216HW,2013-06-26 13:15:00,
2013-06-26 06:16:00,57.2,54.9,29.92,NW,315,0.0,0.0,92,0.02,,,0.04,WUHU216HW,2013-06-26 13:16:00,
2013-06-26 06:18:00,57.2,54.9,29.92,NW,315,0.0,0.0,92,0.02,,,0.04,WUHU216HW,2013-06-26 13:18:00,
2013-06-26 06:19:00,57.2,54.9,29.92,North,0,1.6,1.6,92,0.02,,,0.04,WUHU216HW,2013-06-26 13:19:00,
2013-06-26 06:20:00,57.4,55.1,29.92,NNE,23,0.2,1.6,92,0.02,,,0.04,WUHU216HW,2013-06-26 13:20:00,
2013-06-26 06:21:00,57.4,55.1,29.92,North,0,0.0,1.6,92,0.02,,,0.04,WUHU216HW,2013-06-26 13:21:00,
2013-06-26 06:23:00,57.4,55.1,29.92,North,0,0.0,1.6,92,0.02,,,0.04,WUHU216HW,2013-06-26 13:23:00,
2013-06-26 06:24:00,57.4,55.1,29.92,North,0,0.0,1.6,92,0.02,,,0.04,WUHU216HW,2013-06-26 13:24:00,
2013-06-26 06:25:00,57.4,55.1,29.92,North,0,0.0,1.6,92,0.02,,,0.04,WUHU216HW,2013-06-26 13:25:00,
2013-06-26 06:26:00,57.4,55.1,29.92,North,0,1.1,1.6,92,0.02,,,0.04,WUHU216HW,2013-06-26 13:26:00,
2013-06-26 06:28:00,57.4,55.1,29.92,North,0,0.4,1.6,92,0.02,,,0.04,WUHU216HW,2013-06-26 13:28:00,
2013-06-26 06:29:00,57.4,55.1,29.92,North,0,0.4,1.6,92,0.02,,,0.04,WUHU216HW,2013-06-26 13:29:00,
2013-06-26 06:30:00,57.4,55.1,29.92,North,0,0.2,1.1,92,0.02,,,0.04,WUHU216HW,2013-06-26 13:30:00,
2013-06-26 06:31:00,57.4,55.1,29.92,North,0,0.0,1.1,92,0.03,,,0.05,WUHU216HW,2013-06-26 13:31:00,
2013-06-26 06:33:00,57.6,55.3,29.92,North,0,0.0,1.1,92,0.03,,,0.05,WUHU216HW,2013-06-26 13:33:00,
2013-06-26 06:34:00,57.6,55.3,29.92,North,0,0.0,1.1,92,0.03,,,0.05,WUHU216HW,2013-06-26 13:34:00,
2013-06-26 06:35:00,57.6,55.3,29.92,North,0,0.4,1.1,92,0.03,,,0.05,WUHU216HW,2013-06-26 13:35:00,
2013-06-26 06:37:00,57.6,55.3,29.92,NNE,23,1.3,1.3,92,0.03,,,0.05,WUHU216HW,2013-06-26 13:37:00,
2013-06-26 06:38:00,57.6,55.3,29.93,NNE,23,1.1,1.8,92,0.03,,,0.05,WUHU216HW,2013-06-26 13:38:00,
2013-06-26 06:39:00,57.6,55.3,29.93,NNE,23,0.9,1.8,92,0.03,,,0.05,WUHU216HW,2013-06-26 13:39:00,
2013-06-26 06:40:00,57.6,55.3,29.93,NNE,23,0.7,1.8,92,0.03,,,0.05,WUHU216HW,2013-06-26 13:40:00,
2013-06-26 06:42:00,57.6,55.3,29.93,NNE,23,0.0,1.8,92,0.03,,,0.05,WUHU216HW,2013-06-26 13:42:00,
2013-06-26 06:43:00,57.6,55.3,29.93,NNE,23,0.0,1.8,92,0.03,,,0.05,WUHU216HW,2013-06-26 13:43:00,
2013-06-26 06:44:00,57.6,55.3,29.93,NNE,23,0.0,1.8,92,0.03,,,0.05,WUHU216HW,2013-06-26 13:44:00,
2013-06-26 06:46:00,57.8,55.4,29.93,North,0,1.8,1.8,92,0.03,,,0.05,WUHU216HW,2013-06-26 13:46:00,
2013-06-26 06:47:00,57.8,55.4,29.93,North,0,1.1,1.8,92,0.03,,,0.05,WUHU216HW,2013-06-26 13:47:00,
2013-06-26 06:49:00,57.8,55.4,29.93,NNE,23,1.1,1.8,92,0.02,,,0.05,WUHU216HW,2013-06-26 13:49:00,
2013-06-26 06:51:00,58.0,55.6,29.93,North,0,1.3,1.8,92,0.02,,,0.05,WUHU216HW,2013-06-26 13:51:00,
2013-06-26 06:52:00,58.0,55.6,29.93,NNE,23,1.8,1.8,92,0.02,,,0.05,WUHU216HW,2013-06-26 13:52:00,
2013-06-26 06:54:00,58.0,55.6,29.93,NNE,23,1.8,2.7,92,0.02,,,0.05,WUHU216HW,2013-06-26 13:54:00,
2013-06-26 06:56:00,58.0,55.6,29.93,North,0,1.1,2.7,92,0.02,,,0.05,WUHU216HW,2013-06-26 13:56:00,
2013-06-26 06:57:00,58.0,55.6,29.93,North,0,2.5,2.7,92,0.02,,,0.05,WUHU216HW,2013-06-26 13:57:00,
2013-06-26 06:59:00,58.1,55.8,29.93,NE,45,1.1,2.7,92,0.02,,,0.05,WUHU216HW,2013-06-26 13:59:00,
2013-06-26 07:00:00,58.1,55.8,29.93,NE,45,1.1,2.7,92,0.02,,,0.05,WUHU216HW,2013-06-26 14:00:00,
2013-06-26 07:01:00,58.1,55.8,29.92,NE,45,0.9,2.7,92,0.01,,,0.05,WUHU216HW,2013-06-26 14:01:00,
2013-06-26 07:02:00,58.1,55.8,29.92,NNE,23,0.9,2.7,92,0.01,,,0.05,WUHU216HW,2013-06-26 14:02:00,
2013-06-26 07:04:00,58.3,56.0,29.92,NNE,23,0.4,2.5,92,0.01,,,0.05,WUHU216HW,2013-06-26 14:04:00,
2013-06-26 07:05:00,58.3,56.0,29.92,NNE,23,0.4,2.5,92,0.01,,,0.05,WUHU216HW,2013-06-26 14:05:00,
2013-06-26 07:07:00,58.3,56.0,29.92,NE,45,0.0,2.5,92,0.01,,,0.05,WUHU216HW,2013-06-26 14:07:00,
2013-06-26 07:08:00,58.5,56.2,29.92,NE,45,0.0,1.8,92,0.01,,,0.05,WUHU216HW,2013-06-26 14:08:00,
2013-06-26 07:09:00,58.5,56.2,29.92,ENE,68,0.7,1.6,92,0.01,,,0.05,WUHU216HW,2013-06-26 14:09:00,
2013-06-26 07:10:00,58.5,56.2,29.92,ENE,68,0.9,1.6,92,0.01,,,0.05,WUHU216HW,2013-06-26 14:10:00,
2013-06-26 07:12:00,58.7,56.3,29.92,ENE,68,0.0,1.3,92,0.01,,,0.05,WUHU216HW,2013-06-26 14:12:00,
2013-06-26 07:13:00,58.9,56.5,29.92,ENE,68,0.0,0.9,92,0.01,,,0.05,WUHU216HW,2013-06-26 14:13:00,
2013-06-26 07:14:00,58.9,56.5,29.93,ENE,68,0.0,0.9,92,0.01,,,0.05,WUHU216HW,2013-06-26 14:14:00,
2013-06-26 07:15:00,58.9,56.5,29.93,ENE,68,0.0,0.9,92,0.01,,,0.05,WUHU216HW,2013-06-26 14:15:00,
2013-06-26 07:17:00,59.0,57.1,29.92,North,0,0.0,0.9,93,0.01,,,0.05,WUHU216HW,2013-06-26 14:17:00,
2013-06-26 07:18:00,59.0,57.1,29.93,North,0,0.0,0.9,93,0.01,,,0.05,WUHU216HW,2013-06-26 14:18:00,
2013-06-26 07:20:00,59.2,57.3,29.93,NW,315,0.0,0.9,93,0.01,,,0.05,WUHU216HW,2013-06-26 14:20:00,
2013-06-26 07:22:00,59.4,57.4,29.93,North,0,1.6,1.6,93,0.01,,,0.05,WUHU216HW,2013-06-26 14:22:00,
2013-06-26 07:23:00,59.4,57.4,29.93,North,0,1.1,1.6,93,0.01,,,0.05,WUHU216HW,2013-06-26 14:23:00,
2013-06-26 07:25:00,59.4,57.4,29.92,North,0,1.8,1.8,93,0.01,,,0.05,WUHU216HW,2013-06-26 14:25:00,
2013-06-26 07:26:00,59.4,57.4,29.92,North,0,1.8,2.0,93,0.01,,,0.05,WUHU216HW,2013-06-26 14:26:00,
2013-06-26 07:28:00,59.4,57.4,29.93,North,0,1.8,2.5,93,0.01,,,0.05,WUHU216HW,2013-06-26 14:28:00,
2013-06-26 07:30:00,59.6,57.6,29.92,NNW,338,0.2,2.5,93,0.00,,,0.05,WUHU216HW,2013-06-26 14:30:00,
2013-06-26 07:31:00,59.6,57.6,29.92,North,0,0.9,2.5,93,0.00,,,0.05,WUHU216HW,2013-06-26 14:31:00,
2013-06-26 07:33:00,59.8,57.8,29.92,North,0,0.0,2.5,93,0.00,,,0.05,WUHU216HW,2013-06-26 14:33:00,
2013-06-26 07:36:00,59.9,58.0,29.92,SSW,203,0.0,2.5,93,0.00,,,0.05,WUHU216HW,2013-06-26 14:36:00,
2013-06-26 07:38:00,60.1,58.2,29.92,South,180,0.0,1.1,93,0.00,,,0.05,WUHU216HW,2013-06-26 14:38:00,
2013-06-26 07:39:00,60.1,58.2,29.92,South,180,0.0,1.1,93,0.00,,,0.05,WUHU216HW,2013-06-26 14:39:00,
2013-06-26 07:41:00,60.1,58.2,29.92,South,180,0.0,0.9,93,0.00,,,0.05,WUHU216HW,2013-06-26 14:41:00,
2013-06-26 07:42:00,60.3,58.3,29.92,SSE,158,0.7,0.7,93,0.00,,,0.05,WUHU216HW,2013-06-26 14:42:00,
2013-06-26 07:43:00,60.3,58.3,29.93,SSE,158,0.7,0.7,93,0.00,,,0.05,WUHU216HW,2013-06-26 14:43:00,
2013-06-26 07:44:00,60.3,58.3,29.93,SE,135,0.0,0.7,93,0.00,,,0.05,WUHU216HW,2013-06-26 14:44:00,
2013-06-26 07:46:00,60.3,58.3,29.93,SE,135,0.0,0.7,93,0.00,,,0.05,WUHU216HW,2013-06-26 14:46:00,
2013-06-26 07:47:00,60.5,58.5,29.93,SE,135,0.0,0.7,93,0.00,,,0.05,WUHU216HW,2013-06-26 14:47:00,
2013-06-26 07:49:00,60.5,58.5,29.93,SE,135,0.0,0.7,93,0.00,,,0.05,WUHU216HW,2013-06-26 14:49:00,
2013-06-26 07:51:00,60.5,58.5,29.93,North,0,0.0,0.7,93,0.00,,,0.05,WUHU216HW,2013-06-26 14:51:00,
2013-06-26 07:52:00,60.5,58.5,29.93,North,0,0.0,0.7,93,0.00,,,0.05,WUHU216HW,2013-06-26 14:52:00,
2013-06-26 07:54:00,60.7,58.7,29.93,North,0,0.0,0.0,93,0.00,,,0.05,WUHU216HW,2013-06-26 14:54:00,
2013-06-26 07:56:00,60.7,58.7,29.93,North,0,0.0,0.0,93,0.00,,,0.05,WUHU216HW,2013-06-26 14:56:00,
2013-06-26 07:57:00,60.5,58.5,29.93,North,0,0.0,0.0,93,0.00,,,0.05,WUHU216HW,2013-06-26 14:57:00,
2013-06-26 07:59:00,60.5,58.5,29.93,North,0,0.0,0.0,93,0.00,,,0.05,WUHU216HW,2013-06-26 14:59:00,
2013-06-26 08:01:00,60.5,58.5,29.93,North,0,0.0,0.0,93,0.00,,,0.05,WUHU216HW,2013-06-26 15:01:00,
2013-06-26 08:02:00,60.7,58.7,29.93,NNE,23,0.4,0.4,93,0.00,,,0.05,WUHU216HW,2013-06-26 15:02:00,
2013-06-26 08:03:00,60.5,58.5,29.93,NNE,23,0.4,0.4,93,0.00,,,0.05,WUHU216HW,2013-06-26 15:03:00,
2013-06-26 08:04:00,60.5,58.5,29.93,ENE,68,1.1,1.8,93,0.00,,,0.05,WUHU216HW,2013-06-26 15:04:00,
2013-06-26 08:05:00,60.7,58.7,29.93,East,90,1.8,1.8,93,0.00,,,0.05,WUHU216HW,2013-06-26 15:05:00,
2013-06-26 08:07:00,60.5,58.5,29.94,ESE,113,1.1,1.8,93,0.00,,,0.05,WUHU216HW,2013-06-26 15:07:00,
2013-06-26 08:08:00,60.5,58.5,29.94,ESE,113,0.4,1.8,93,0.00,,,0.05,WUHU216HW,2013-06-26 15:08:00,
2013-06-26 08:10:00,60.3,58.3,29.94,East,90,0.0,1.8,93,0.00,,,0.05,WUHU216HW,2013-06-26 15:10:00,
2013-06-26 08:12:00,60.3,58.3,29.94,ESE,113,1.1,1.8,93,0.00,,,0.05,WUHU216HW,2013-06-26 15:12:00,
2013-06-26 08:13:00,60.3,58.3,29.94,South,180,1.6,1.8,93,0.00,,,0.05,WUHU216HW,2013-06-26 15:13:00,
2013-06-26 08:15:00,60.1,58.2,29.94,East,90,0.0,3.1,93,0.00,,,0.05,WUHU216HW,2013-06-26 15:15:00,
2013-06-26 08:17:00,60.1,58.2,29.94,East,90,0.0,3.1,93,0.00,,,0.05,WUHU216HW,2013-06-26 15:17:00,
2013-06-26 08:18:00,60.3,58.3,29.94,East,90,0.4,3.1,93,0.00,,,0.05,WUHU216HW,2013-06-26 15:18:00,
2013-06-26 08:20:00,60.5,58.5,29.94,ESE,113,1.1,3.1,93,0.00,,,0.05,WUHU216HW,2013-06-26 15:20:00,
2013-06-26 08:21:00,60.5,58.5,29.94,ENE,68,0.4,3.1,93,0.00,,,0.05,WUHU216HW,2013-06-26 15:21:00,
2013-06-26 08:22:00,60.5,58.5,29.94,ENE,68,0.4,3.1,93,0.00,,,0.05,WUHU216HW,2013-06-26 15:22:00,
2013-06-26 08:23:00,60.5,58.5,29.94,NE,45,0.4,3.1,93,0.00,,,0.05,WUHU216HW,2013-06-26 15:23:00,
2013-06-26 08:25:00,60.8,58.9,29.94,SE,135,1.1,1.1,93,0.00,,,0.05,WUHU216HW,2013-06-26 15:25:00,
2013-06-26 08:26:00,60.8,58.9,29.94,SE,135,1.1,1.1,93,0.00,,,0.05,WUHU216HW,2013-06-26 15:26:00,
2013-06-26 08:27:00,61.0,59.1,29.94,SE,135,0.0,1.1,93,0.00,,,0.05,WUHU216HW,2013-06-26 15:27:00,
2013-06-26 08:28:00,61.0,59.1,29.94,ESE,113,0.0,1.1,93,0.00,,,0.05,WUHU216HW,2013-06-26 15:28:00,
2013-06-26 08:31:00,61.4,59.4,29.94,South,180,0.0,1.1,93,0.00,,,0.05,WUHU216HW,2013-06-26 15:31:00,
2013-06-26 08:32:00,61.6,59.6,29.94,SSE,158,0.0,1.1,93,0.00,,,0.05,WUHU216HW,2013-06-26 15:32:00,
2013-06-26 08:33:00,61.6,59.6,29.94,SSE,158,0.0,1.1,93,0.00,,,0.05,WUHU216HW,2013-06-26 15:33:00,
2013-06-26 08:36:00,61.9,59.6,29.94,ESE,113,0.4,1.1,92,0.00,,,0.05,WUHU216HW,2013-06-26 15:36:00,
2013-06-26 08:37:00,61.9,59.6,29.94,East,90,1.8,2.0,92,0.00,,,0.05,WUHU216HW,2013-06-26 15:37:00,
2013-06-26 08:38:00,61.9,59.6,29.95,ESE,113,0.0,2.0,92,0.00,,,0.05,WUHU216HW,2013-06-26 15:38:00,
2013-06-26 08:41:00,62.1,59.8,29.95,ESE,113,0.7,2.0,92,0.00,,,0.05,WUHU216HW,2013-06-26 15:41:00,
2013-06-26 08:42:00,62.1,59.8,29.95,ESE,113,0.4,2.0,92,0.00,,,0.05,WUHU216HW,2013-06-26 15:42:00,
2013-06-26 08:43:00,62.3,59.9,29.95,SW,225,0.4,2.0,92,0.00,,,0.05,WUHU216HW,2013-06-26 15:43:00,
2013-06-26 08:44:00,62.3,59.9,29.95,SE,135,0.7,2.0,92,0.00,,,0.05,WUHU216HW,2013-06-26 15:44:00,
2013-06-26 08:46:00,62.5,60.1,29.95,ESE,113,0.7,2.0,92,0.00,,,0.05,WUHU216HW,2013-06-26 15:46:00,
2013-06-26 08:47:00,62.3,59.9,29.95,ESE,113,0.4,2.0,92,0.00,,,0.05,WUHU216HW,2013-06-26 15:47:00,
2013-06-26 08:48:00,62.5,60.1,29.95,East,90,1.1,1.3,92,0.00,,,0.05,WUHU216HW,2013-06-26 15:48:00,
2013-06-26 08:49:00,62.6,60.3,29.95,East,90,1.1,1.3,92,0.00,,,0.05,WUHU216HW,2013-06-26 15:49:00,
2013-06-26 08:51:00,62.6,60.0,29.95,ENE,68,0.2,1.6,91,0.00,,,0.05,WUHU216HW,2013-06-26 15:51:00,
2013-06-26 08:52:00,62.6,60.0,29.94,ESE,113,0.7,1.6,91,0.00,,,0.05,WUHU216HW,2013-06-26 15:52:00,
2013-06-26 08:53:00,62.8,60.2,29.95,ESE,113,0.4,1.6,91,0.00,,,0.05,WUHU216HW,2013-06-26 15:53:00,
2013-06-26 08:54:00,62.8,60.2,29.95,NNE,23,0.7,1.6,91,0.00,,,0.05,WUHU216HW,2013-06-26 15:54:00,
2013-06-26 08:56:00,63.0,60.4,29.94,ENE,68,0.0,1.6,91,0.00,,,0.05,WUHU216HW,2013-06-26 15:56:00,
2013-06-26 08:57:00,63.2,60.6,29.95,NNW,338,0.0,1.6,91,0.00,,,0.05,WUHU216HW,2013-06-26 15:57:00,
2013-06-26 08:58:00,63.2,60.6,29.95,ENE,68,1.1,1.6,91,0.00,,,0.05,WUHU216HW,2013-06-26 15:58:00,
2013-06-26 08:59:00,63.4,60.8,29.95,ENE,68,0.0,1.6,91,0.00,,,0.05,WUHU216HW,2013-06-26 15:59:00,
2013-06-26 09:01:00,63.4,60.8,29.95,South,180,0.9,1.3,91,0.00,,,0.05,WUHU216HW,2013-06-26 16:01:00,
2013-06-26 09:02:00,63.4,60.5,29.95,SE,135,0.9,2.5,90,0.00,,,0.05,WUHU216HW,2013-06-26 16:02:00,
2013-06-26 09:03:00,63.4,60.5,29.95,SE,135,0.9,2.5,90,0.00,,,0.05,WUHU216HW,2013-06-26 16:03:00,
2013-06-26 09:04:00,63.4,60.5,29.95,South,180,0.4,2.5,90,0.00,,,0.05,WUHU216HW,2013-06-26 16:04:00,
2013-06-26 09:06:00,63.5,60.7,29.95,SSE,158,1.1,2.5,90,0.00,,,0.05,WUHU216HW,2013-06-26 16:06:00,
2013-06-26 09:08:00,63.5,60.7,29.95,ENE,68,0.4,2.5,90,0.00,,,0.05,WUHU216HW,2013-06-26 16:08:00,
2013-06-26 09:10:00,63.7,60.8,29.95,ENE,68,0.2,2.5,90,0.00,,,0.05,WUHU216HW,2013-06-26 16:10:00,
2013-06-26 09:12:00,63.7,60.8,29.95,ESE,113,0.0,2.5,90,0.00,,,0.05,WUHU216HW,2013-06-26 16:12:00,
2013-06-26 09:13:00,63.7,60.8,29.95,ESE,113,0.0,1.6,90,0.00,,,0.05,WUHU216HW,2013-06-26 16:13:00,
2013-06-26 09:14:00,63.9,61.0,29.95,ESE,113,0.7,1.6,90,0.00,,,0.05,WUHU216HW,2013-06-26 16:14:00,
2013-06-26 09:15:00,64.1,61.2,29.95,SSW,203,1.8,1.8,90,0.00,,,0.05,WUHU216HW,2013-06-26 16:15:00,
2013-06-26 09:17:00,64.1,60.8,29.95,SSE,158,1.3,2.9,89,0.00,,,0.05,WUHU216HW,2013-06-26 16:17:00,
2013-06-26 09:18:00,64.3,61.0,29.95,East,90,0.7,2.9,89,0.00,,,0.05,WUHU216HW,2013-06-26 16:18:00,
2013-06-26 09:19:00,64.3,61.0,29.95,SE,135,0.0,2.9,89,0.00,,,0.05,WUHU216HW,2013-06-26 16:19:00,
2013-06-26 09:20:00,64.3,61.0,29.95,East,90,1.1,2.9,89,0.00,,,0.05,WUHU216HW,2013-06-26 16:20:00,
2013-06-26 09:22:00,64.3,60.7,29.95,ENE,68,0.0,2.9,88,0.00,,,0.05,WUHU216HW,2013-06-26 16:22:00,
2013-06-26 09:23:00,64.4,60.8,29.95,NE,45,0.7,2.9,88,0.00,,,0.05,WUHU216HW,2013-06-26 16:23:00,
2013-06-26 09:24:00,64.4,60.8,29.95,NE,45,0.4,2.9,88,0.00,,,0.05,WUHU216HW,2013-06-26 16:24:00,
2013-06-26 09:25:00,64.6,61.0,29.95,SSW,203,1.8,2.9,88,0.00,,,0.05,WUHU216HW,2013-06-26 16:25:00,
2013-06-26 09:27:00,64.8,60.8,29.95,East,90,1.8,2.5,87,0.00,,,0.05,WUHU216HW,2013-06-26 16:27:00,
2013-06-26 09:28:00,64.8,60.8,29.95,SE,135,1.3,2.5,87,0.00,,,0.05,WUHU216HW,2013-06-26 16:28:00,
2013-06-26 09:29:00,65.0,61.0,29.95,SSE,158,0.4,2.5,87,0.00,,,0.05,WUHU216HW,2013-06-26 16:29:00,
2013-06-26 09:31:00,65.2,61.6,29.95,South,180,2.7,2.7,88,0.00,,,0.05,WUHU216HW,2013-06-26 16:31:00,
2013-06-26 09:32:00,65.5,60.6,29.96,SE,135,1.8,3.6,84,0.00,,,0.05,WUHU216HW,2013-06-26 16:32:00,
2013-06-26 09:33:00,65.5,60.6,29.96,South,180,2.2,3.6,84,0.00,,,0.05,WUHU216HW,2013-06-26 16:33:00,
2013-06-26 09:34:00,65.5,60.6,29.96,SE,135,2.5,3.6,84,0.00,,,0.05,WUHU216HW,2013-06-26 16:34:00,
2013-06-26 09:37:00,65.9,60.9,29.96,SE,135,1.6,4.5,84,0.00,,,0.05,WUHU216HW,2013-06-26 16:37:00,
2013-06-26 09:38:00,65.9,60.9,29.96,SSE,158,1.1,4.5,84,0.00,,,0.05,WUHU216HW,2013-06-26 16:38:00,
2013-06-26 09:39:00,65.9,60.6,29.96,ESE,113,2.0,4.5,83,0.00,,,0.05,WUHU216HW,2013-06-26 16:39:00,
2013-06-26 09:42:00,66.1,61.0,29.96,ESE,113,1.1,4.5,84,0.00,,,0.05,WUHU216HW,2013-06-26 16:42:00,
2013-06-26 09:43:00,66.1,61.0,29.96,SE,135,1.8,4.5,84,0.00,,,0.05,WUHU216HW,2013-06-26 16:43:00,
2013-06-26 09:44:00,66.2,61.2,29.96,East,90,2.9,4.5,84,0.00,,,0.05,WUHU216HW,2013-06-26 16:44:00,
2013-06-26 09:47:00,66.1,60.4,29.96,SE,135,1.1,3.4,82,0.00,,,0.05,WUHU216HW,2013-06-26 16:47:00,
2013-06-26 09:48:00,66.1,60.4,29.96,SE,135,1.1,3.4,82,0.00,,,0.05,WUHU216HW,2013-06-26 16:48:00,
2013-06-26 09:49:00,66.1,60.4,29.96,ESE,113,1.8,3.4,82,0.00,,,0.05,WUHU216HW,2013-06-26 16:49:00,
2013-06-26 09:50:00,66.1,60.4,29.96,SE,135,0.9,3.4,82,0.00,,,0.05,WUHU216HW,2013-06-26 16:50:00,
2013-06-26 09:52:00,65.9,60.0,29.96,ESE,113,1.6,4.3,81,0.00,,,0.05,WUHU216HW,2013-06-26 16:52:00,
2013-06-26 09:53:00,65.9,60.2,29.96,SE,135,1.8,4.3,82,0.00,,,0.05,WUHU216HW,2013-06-26 16:53:00,
2013-06-26 09:54:00,65.9,60.2,29.96,SSE,158,1.1,4.3,82,0.00,,,0.05,WUHU216HW,2013-06-26 16:54:00,
2013-06-26 09:55:00,65.9,60.2,29.96,SE,135,4.0,4.3,82,0.00,,,0.05,WUHU216HW,2013-06-26 16:55:00,
2013-06-26 09:58:00,66.1,60.4,29.96,SSE,158,1.1,4.3,82,0.00,,,0.05,WUHU216HW,2013-06-26 16:58:00,
2013-06-26 09:59:00,66.2,60.6,29.96,ESE,113,1.1,4.3,82,0.00,,,0.05,WUHU216HW,2013-06-26 16:59:00,
2013-06-26 10:00:00,66.2,60.9,29.96,SSE,158,0.0,4.3,83,0.00,,,0.05,WUHU216HW,2013-06-26 17:00:00,
2013-06-26 10:03:00,66.6,61.3,29.96,West,270,1.8,4.0,83,0.00,,,0.05,WUHU216HW,2013-06-26 17:03:00,
2013-06-26 10:04:00,66.6,61.3,29.96,SSE,158,0.2,4.0,83,0.00,,,0.05,WUHU216HW,2013-06-26 17:04:00,
2013-06-26 10:05:00,66.6,60.9,29.96,SE,135,1.6,2.5,82,0.00,,,0.05,WUHU216HW,2013-06-26 17:05:00,
2013-06-26 10:08:00,66.8,61.5,29.96,SE,135,1.3,2.5,83,0.00,,,0.05,WUHU216HW,2013-06-26 17:08:00,
2013-06-26 10:09:00,66.8,61.1,29.96,SSE,158,0.4,2.5,82,0.00,,,0.05,WUHU216HW,2013-06-26 17:09:00,
2013-06-26 10:10:00,67.0,61.0,29.96,SSE,158,1.1,2.5,81,0.00,,,0.05,WUHU216HW,2013-06-26 17:10:00,
2013-06-26 10:13:00,67.1,61.2,29.96,South,180,0.7,2.0,81,0.00,,,0.05,WUHU216HW,2013-06-26 17:13:00,
2013-06-26 10:14:00,67.1,60.8,29.96,SSE,158,1.1,3.1,80,0.00,,,0.05,WUHU216HW,2013-06-26 17:14:00,
2013-06-26 10:15:00,67.1,60.5,29.96,South,180,4.0,4.0,79,0.00,,,0.05,WUHU216HW,2013-06-26 17:15:00,
2013-06-26 10:16:00,67.1,60.5,29.96,SSE,158,6.0,6.0,79,0.00,,,0.05,WUHU216HW,2013-06-26 17:16:00,
2013-06-26 10:18:00,67.1,60.1,29.96,SSE,158,2.5,6.0,78,0.00,,,0.05,WUHU216HW,2013-06-26 17:18:00,
2013-06-26 10:19:00,67.0,60.0,29.96,SE,135,2.5,6.0,78,0.00,,,0.05,WUHU216HW,2013-06-26 17:19:00,
2013-06-26 10:20:00,66.8,59.8,29.96,South,180,2.7,6.0,78,0.00,,,0.05,WUHU216HW,2013-06-26 17:20:00,
2013-06-26 10:21:00,66.8,59.8,29.96,SSE,158,2.0,6.0,78,0.00,,,0.05,WUHU216HW,2013-06-26 17:21:00,
2013-06-26 10:23:00,66.4,59.8,29.96,SE,135,1.6,6.0,79,0.00,,,0.05,WUHU216HW,2013-06-26 17:23:00,
2013-06-26 10:24:00,66.2,59.9,29.96,South,180,3.6,6.0,80,0.00,,,0.05,WUHU216HW,2013-06-26 17:24:00,
2013-06-26 10:25:00,66.2,59.6,29.96,SSE,158,2.9,6.0,79,0.00,,,0.05,WUHU216HW,2013-06-26 17:25:00,
2013-06-26 10:26:00,66.1,59.4,29.96,SSE,158,3.8,4.3,79,0.00,,,0.05,WUHU216HW,2013-06-26 17:26:00,
2013-06-26 10:28:00,65.9,59.6,29.96,SE,135,4.0,4.3,80,0.00,,,0.05,WUHU216HW,2013-06-26 17:28:00,
2013-06-26 10:29:00,65.9,59.6,29.96,SSE,158,2.9,4.3,80,0.00,,,0.05,WUHU216HW,2013-06-26 17:29:00,
2013-06-26 10:30:00,65.9,59.6,29.96,SSE,158,1.6,4.3,80,0.00,,,0.05,WUHU216HW,2013-06-26 17:30:00,
2013-06-26 10:31:00,65.9,60.0,29.96,SE,135,1.6,4.3,81,0.00,,,0.05,WUHU216HW,2013-06-26 17:31:00,
2013-06-26 10:33:00,66.1,60.4,29.96,SE,135,2.5,4.3,82,0.00,,,0.05,WUHU216HW,2013-06-26 17:33:00,
2013-06-26 10:35:00,66.2,60.6,29.96,ESE,113,0.4,4.3,82,0.00,,,0.05,WUHU216HW,2013-06-26 17:35:00,
2013-06-26 10:36:00,66.4,60.8,29.96,NNE,23,0.9,4.3,82,0.00,,,0.05,WUHU216HW,2013-06-26 17:36:00,
2013-06-26 10:38:00,67.0,61.0,29.96,South,180,1.3,4.0,81,0.00,,,0.05,WUHU216HW,2013-06-26 17:38:00,
2013-06-26 10:40:00,67.1,60.5,29.96,SSE,158,5.1,5.1,79,0.00,,,0.05,WUHU216HW,2013-06-26 17:40:00,
2013-06-26 10:41:00,67.3,61.0,29.96,South,180,4.5,5.1,80,0.00,,,0.05,WUHU216HW,2013-06-26 17:41:00,
2013-06-26 10:43:00,67.5,61.2,29.96,SSE,158,3.8,5.1,80,0.00,,,0.05,WUHU216HW,2013-06-26 17:43:00,
2013-06-26 10:44:00,67.5,60.9,29.96,South,180,3.4,5.1,79,0.00,,,0.05,WUHU216HW,2013-06-26 17:44:00,
2013-06-26 10:45:00,67.5,60.0,29.96,SSE,158,3.1,5.1,77,0.00,,,0.05,WUHU216HW,2013-06-26 17:45:00,
2013-06-26 10:46:00,67.5,60.5,29.97,SSE,158,2.5,5.1,78,0.00,,,0.05,WUHU216HW,2013-06-26 17:46:00,
2013-06-26 10:48:00,67.7,60.7,29.97,SE,135,1.8,5.1,78,0.00,,,0.05,WUHU216HW,2013-06-26 17:48:00,
2013-06-26 10:49:00,67.7,60.7,29.97,ESE,113,2.2,5.1,78,0.00,,,0.05,WUHU216HW,2013-06-26 17:49:00,
2013-06-26 10:50:00,67.7,60.7,29.97,SE,135,1.1,4.7,78,0.00,,,0.05,WUHU216HW,2013-06-26 17:50:00,
2013-06-26 10:51:00,67.9,61.2,29.97,SSE,158,2.5,4.5,79,0.00,,,0.05,WUHU216HW,2013-06-26 17:51:00,
2013-06-26 10:52:00,67.9,61.2,29.97,South,180,2.5,4.5,79,0.00,,,0.05,WUHU216HW,2013-06-26 17:52:00,
2013-06-26 10:53:00,68.2,60.8,29.97,SSE,158,4.7,4.9,77,0.00,,,0.05,WUHU216HW,2013-06-26 17:53:00,
2013-06-26 10:54:00,68.2,60.8,29.97,SE,135,3.4,4.9,77,0.00,,,0.05,WUHU216HW,2013-06-26 17:54:00,
2013-06-26 10:56:00,68.4,60.9,29.97,South,180,2.5,4.9,77,0.00,,,0.05,WUHU216HW,2013-06-26 17:56:00,
2013-06-26 10:57:00,68.6,61.1,29.97,South,180,5.4,5.4,77,0.00,,,0.05,WUHU216HW,2013-06-26 17:57:00,
2013-06-26 10:59:00,68.8,60.8,29.97,SSE,158,1.3,5.4,76,0.00,,,0.05,WUHU216HW,2013-06-26 17:59:00,
2013-06-26 11:01:00,69.3,61.4,29.97,South,180,2.0,5.4,76,0.00,,,0.05,WUHU216HW,2013-06-26 18:01:00,
2013-06-26 11:02:00,69.5,61.6,29.97,South,180,2.0,5.4,76,0.00,,,0.05,WUHU216HW,2013-06-26 18:02:00,
2013-06-26 11:04:00,70.2,61.1,29.97,South,180,5.4,5.4,73,0.00,,,0.05,WUHU216HW,2013-06-26 18:04:00,
2013-06-26 11:06:00,70.9,60.7,29.97,SE,135,2.9,6.7,70,0.00,,,0.05,WUHU216HW,2013-06-26 18:06:00,
2013-06-26 11:07:00,71.1,60.0,29.97,SSE,158,6.0,6.7,68,0.00,,,0.05,WUHU216HW,2013-06-26 18:07:00,
2013-06-26 11:09:00,71.3,60.6,29.97,SSE,158,2.7,6.7,69,0.00,,,0.05,WUHU216HW,2013-06-26 18:09:00,
2013-06-26 11:11:00,72.4,61.7,29.97,SSE,158,2.7,6.7,69,0.00,,,0.05,WUHU216HW,2013-06-26 18:11:00,
2013-06-26 11:12:00,72.4,61.7,29.98,South,180,4.0,6.7,69,0.00,,,0.05,WUHU216HW,2013-06-26 18:12:00,
2013-06-26 11:13:00,72.9,61.7,29.97,SSE,158,3.4,6.7,68,0.00,,,0.05,WUHU216HW,2013-06-26 18:13:00,
2013-06-26 11:14:00,73.3,61.7,29.98,SSE,158,6.0,6.7,67,0.00,,,0.05,WUHU216HW,2013-06-26 18:14:00,
2013-06-26 11:17:00,74.0,61.0,29.98,SSE,158,4.0,6.5,64,0.00,,,0.05,WUHU216HW,2013-06-26 18:17:00,
2013-06-26 11:18:00,74.3,62.2,29.97,South,180,2.0,6.5,66,0.00,,,0.05,WUHU216HW,2013-06-26 18:18:00,
2013-06-26 11:19:00,74.5,62.4,29.98,SE,135,2.5,6.5,66,0.00,,,0.05,WUHU216HW,2013-06-26 18:19:00,
2013-06-26 11:22:00,76.1,61.8,29.97,SE,135,4.0,6.5,61,0.00,,,0.05,WUHU216HW,2013-06-26 18:22:00,
2013-06-26 11:23:00,76.3,61.5,29.98,South,180,5.1,6.5,60,0.00,,,0.05,WUHU216HW,2013-06-26 18:23:00,
2013-06-26 11:24:00,76.9,62.4,29.98,SSE,158,2.5,6.5,61,0.00,,,0.05,WUHU216HW,2013-06-26 18:24:00,
2013-06-26 11:25:00,76.9,62.8,29.98,East,90,1.3,6.5,62,0.00,,,0.05,WUHU216HW,2013-06-26 18:25:00,
2013-06-26 11:27:00,77.6,63.6,29.98,SSW,203,2.0,5.1,62,0.00,,,0.05,WUHU216HW,2013-06-26 18:27:00,
2013-06-26 11:28:00,77.8,61.8,29.98,SSW,203,2.0,5.1,58,0.00,,,0.05,WUHU216HW,2013-06-26 18:28:00,
2013-06-26 11:29:00,77.9,62.0,29.98,SSE,158,4.5,5.1,58,0.00,,,0.05,WUHU216HW,2013-06-26 18:29:00,
2013-06-26 11:30:00,78.5,62.5,29.98,SE,135,3.4,5.1,58,0.00,,,0.05,WUHU216HW,2013-06-26 18:30:00,
2013-06-26 11:32:00,78.8,62.8,29.98,SE,135,3.8,5.1,58,0.00,,,0.05,WUHU216HW,2013-06-26 18:32:00,
2013-06-26 11:33:00,79.0,62.5,29.98,SE,135,4.0,5.1,57,0.00,,,0.05,WUHU216HW,2013-06-26 18:33:00,
2013-06-26 11:34:00,79.2,63.2,29.98,South,180,6.0,6.0,58,0.00,,,0.05,WUHU216HW,2013-06-26 18:34:00,
2013-06-26 11:35:00,79.4,62.3,29.98,ESE,113,3.1,6.0,56,0.00,,,0.05,WUHU216HW,2013-06-26 18:35:00,
2013-06-26 11:38:00,80.1,62.9,29.98,WSW,248,2.5,6.0,56,0.00,,,0.05,WUHU216HW,2013-06-26 18:38:00,
2013-06-26 11:39:00,80.3,63.1,29.98,SE,135,2.5,6.0,56,0.00,,,0.05,WUHU216HW,2013-06-26 18:39:00,
2013-06-26 11:40:00,80.6,63.5,29.98,ESE,113,2.2,6.0,56,0.00,,,0.05,WUHU216HW,2013-06-26 18:40:00,
2013-06-26 11:43:00,80.6,62.9,29.98,South,180,0.4,6.0,55,0.00,,,0.05,WUHU216HW,2013-06-26 18:43:00,
2013-06-26 11:44:00,81.0,63.7,29.97,ESE,113,2.0,6.0,56,0.00,,,0.05,WUHU216HW,2013-06-26 18:44:00,
2013-06-26 11:45:00,80.6,61.8,29.98,NE,45,1.1,5.1,53,0.00,,,0.05,WUHU216HW,2013-06-26 18:45:00,
2013-06-26 11:48:00,80.8,62.0,29.98,SW,225,1.8,5.6,53,0.00,,,0.05,WUHU216HW,2013-06-26 18:48:00,
2013-06-26 11:49:00,80.6,61.8,29.98,ESE,113,2.2,6.0,53,0.00,,,0.05,WUHU216HW,2013-06-26 18:49:00,
2013-06-26 11:51:00,80.6,61.8,29.98,ENE,68,1.1,6.0,53,0.00,,,0.05,WUHU216HW,2013-06-26 18:51:00,
2013-06-26 11:53:00,80.8,61.5,29.98,SSE,158,2.5,6.0,52,0.00,,,0.05,WUHU216HW,2013-06-26 18:53:00,
2013-06-26 11:54:00,81.0,63.3,29.98,SE,135,2.2,6.0,55,0.00,,,0.05,WUHU216HW,2013-06-26 18:54:00,
2013-06-26 11:56:00,81.0,61.1,29.98,SE,135,2.0,6.0,51,0.00,,,0.05,WUHU216HW,2013-06-26 18:56:00,
2013-06-26 11:58:00,80.3,60.5,29.98,SE,135,2.5,8.1,51,0.00,,,0.05,WUHU216HW,2013-06-26 18:58:00,
2013-06-26 11:59:00,80.1,61.9,29.98,SSE,158,1.6,8.1,54,0.00,,,0.05,WUHU216HW,2013-06-26 18:59:00,
2013-06-26 12:01:00,79.6,60.4,29.98,East,90,3.1,8.1,52,0.00,,,0.05,WUHU216HW,2013-06-26 19:01:00,
2013-06-26 12:03:00,79.2,60.0,29.98,SE,135,3.4,8.1,52,0.00,,,0.05,WUHU216HW,2013-06-26 19:03:00,
2013-06-26 12:04:00,79.0,60.9,29.98,SE,135,3.4,8.1,54,0.00,,,0.05,WUHU216HW,2013-06-26 19:04:00,
2013-06-26 12:06:00,78.8,60.8,29.98,SSW,203,2.0,8.1,54,0.00,,,0.05,WUHU216HW,2013-06-26 19:06:00,
2013-06-26 12:07:00,78.7,60.6,29.98,East,90,3.8,5.1,54,0.00,,,0.05,WUHU216HW,2013-06-26 19:07:00,
2013-06-26 12:08:00,78.3,59.8,29.98,SSW,203,3.4,4.7,53,0.00,,,0.05,WUHU216HW,2013-06-26 19:08:00,
2013-06-26 12:09:00,77.9,60.0,29.98,SE,135,6.0,6.0,54,0.00,,,0.05,WUHU216HW,2013-06-26 19:09:00,
2013-06-26 12:11:00,77.2,60.8,29.98,East,90,2.0,6.0,57,0.00,,,0.05,WUHU216HW,2013-06-26 19:11:00,
2013-06-26 12:12:00,77.2,60.8,29.98,SE,135,2.0,6.0,57,0.00,,,0.05,WUHU216HW,2013-06-26 19:12:00,
2013-06-26 12:13:00,77.0,60.6,29.98,East,90,0.4,6.0,57,0.00,,,0.05,WUHU216HW,2013-06-26 19:13:00,
2013-06-26 12:14:00,76.9,60.4,29.98,South,180,1.1,6.0,57,0.00,,,0.05,WUHU216HW,2013-06-26 19:14:00,
2013-06-26 12:16:00,77.0,61.6,29.98,SE,135,2.7,6.0,59,0.00,,,0.05,WUHU216HW,2013-06-26 19:16:00,
2013-06-26 12:17:00,77.4,60.4,29.98,SSE,158,4.7,6.0,56,0.00,,,0.05,WUHU216HW,2013-06-26 19:17:00,
2013-06-26 12:19:00,77.2,60.3,29.98,SSE,158,1.6,6.0,56,0.00,,,0.05,WUHU216HW,2013-06-26 19:19:00,
2013-06-26 12:20:00,77.0,60.6,29.98,South,180,2.0,5.8,57,0.00,,,0.05,WUHU216HW,2013-06-26 19:20:00,
2013-06-26 12:21:00,77.0,60.1,29.98,SSE,158,2.5,5.8,56,0.00,,,0.05,WUHU216HW,2013-06-26 19:21:00,
2013-06-26 12:22:00,76.9,60.4,29.98,SE,135,1.1,5.8,57,0.00,,,0.05,WUHU216HW,2013-06-26 19:22:00,
2013-06-26 12:24:00,76.7,60.8,29.98,ESE,113,0.9,5.8,58,0.00,,,0.05,WUHU216HW,2013-06-26 19:24:00,
2013-06-26 12:25:00,76.3,60.5,29.98,ENE,68,0.7,5.8,58,0.00,,,0.05,WUHU216HW,2013-06-26 19:25:00,
2013-06-26 12:26:00,76.1,60.3,29.98,ESE,113,0.4,5.8,58,0.00,,,0.05,WUHU216HW,2013-06-26 19:26:00,
2013-06-26 12:27:00,76.1,60.8,29.98,ESE,113,0.4,4.7,59,0.00,,,0.05,WUHU216HW,2013-06-26 19:27:00,
2013-06-26 12:29:00,76.1,61.3,29.98,East,90,0.4,2.7,60,0.00,,,0.05,WUHU216HW,2013-06-26 19:29:00,
2013-06-26 12:30:00,76.0,61.1,29.98,South,180,4.0,4.0,60,0.00,,,0.05,WUHU216HW,2013-06-26 19:30:00,
2013-06-26 12:32:00,76.0,60.1,29.98,SE,135,1.8,4.0,58,0.00,,,0.05,WUHU216HW,2013-06-26 19:32:00,
2013-06-26 12:34:00,75.2,59.5,29.98,SE,135,1.8,4.0,58,0.00,,,0.05,WUHU216HW,2013-06-26 19:34:00,
2013-06-26 12:35:00,75.1,60.3,29.98,SSW,203,2.7,4.0,60,0.00,,,0.05,WUHU216HW,2013-06-26 19:35:00,
2013-06-26 12:36:00,74.7,59.4,29.99,ESE,113,2.0,4.3,59,0.00,,,0.05,WUHU216HW,2013-06-26 19:36:00,
2013-06-26 12:37:00,74.5,59.2,29.99,South,180,5.6,5.6,59,0.00,,,0.05,WUHU216HW,2013-06-26 19:37:00,
2013-06-26 12:39:00,74.5,60.7,29.99,SSE,158,13.6,13.6,62,0.00,,,0.05,WUHU216HW,2013-06-26 19:39:00,
2013-06-26 12:40:00,74.3,60.5,29.99,SSW,203,8.7,13.6,62,0.00,,,0.05,WUHU216HW,2013-06-26 19:40:00,
2013-06-26 12:41:00,74.2,60.8,29.99,SSW,203,7.2,13.6,63,0.00,,,0.05,WUHU216HW,2013-06-26 19:41:00,
2013-06-26 12:42:00,73.8,60.0,29.99,South,180,7.6,13.6,62,0.00,,,0.05,WUHU216HW,2013-06-26 19:42:00,
2013-06-26 12:44:00,73.4,60.0,29.99,SSW,203,6.9,13.6,63,0.00,,,0.05,WUHU216HW,2013-06-26 19:44:00,
2013-06-26 12:45:00,73.4,60.0,29.99,SSW,203,4.7,13.6,63,0.00,,,0.05,WUHU216HW,2013-06-26 19:45:00,
2013-06-26 12:46:00,73.4,60.5,29.99,SSW,203,9.2,13.6,64,0.00,,,0.05,WUHU216HW,2013-06-26 19:46:00,
2013-06-26 12:47:00,73.4,60.5,29.99,SSW,203,6.3,13.6,64,0.00,,,0.05,WUHU216HW,2013-06-26 19:47:00,
2013-06-26 12:49:00,73.4,60.0,29.99,SSW,203,5.1,13.6,63,0.00,,,0.05,WUHU216HW,2013-06-26 19:49:00,
2013-06-26 12:50:00,73.4,60.0,29.99,SSW,203,6.0,9.2,63,0.00,,,0.05,WUHU216HW,2013-06-26 19:50:00,
2013-06-26 12:51:00,73.6,60.7,29.99,SSW,203,2.5,9.2,64,0.00,,,0.05,WUHU216HW,2013-06-26 19:51:00,
2013-06-26 12:52:00,74.0,61.0,29.99,SSW,203,4.7,9.2,64,0.00,,,0.05,WUHU216HW,2013-06-26 19:52:00,
2013-06-26 12:54:00,74.5,61.6,29.99,South,180,4.5,9.2,64,0.00,,,0.05,WUHU216HW,2013-06-26 19:54:00,
2013-06-26 12:55:00,74.9,61.8,29.99,SSW,203,3.4,9.2,64,0.00,,,0.05,WUHU216HW,2013-06-26 19:55:00,
2013-06-26 12:56:00,75.6,61.7,29.99,SSW,203,3.4,6.5,62,0.00,,,0.05,WUHU216HW,2013-06-26 19:56:00,
2013-06-26 12:58:00,76.0,61.1,29.99,South,180,5.6,6.0,60,0.00,,,0.05,WUHU216HW,2013-06-26 19:58:00,
2013-06-26 12:59:00,76.3,61.5,29.99,SW,225,2.5,6.0,60,0.00,,,0.05,WUHU216HW,2013-06-26 19:59:00,
2013-06-26 13:00:00,76.5,61.1,29.99,SSW,203,4.7,6.0,59,0.00,,,0.05,WUHU216HW,2013-06-26 20:00:00,
2013-06-26 13:01:00,76.5,61.1,29.99,SSW,203,3.8,6.0,59,0.00,,,0.05,WUHU216HW,2013-06-26 20:01:00,
2013-06-26 13:02:00,76.5,60.6,29.99,South,180,6.7,7.8,58,0.00,,,0.05,WUHU216HW,2013-06-26 20:02:00,
2013-06-26 13:03:00,76.7,60.8,29.99,SSW,203,2.7,7.8,58,0.00,,,0.05,WUHU216HW,2013-06-26 20:03:00,
2013-06-26 13:04:00,76.7,60.8,29.99,SSW,203,2.7,7.8,58,0.00,,,0.05,WUHU216HW,2013-06-26 20:04:00,
2013-06-26 13:06:00,77.0,61.6,29.99,South,180,3.4,7.8,59,0.00,,,0.05,WUHU216HW,2013-06-26 20:06:00,
2013-06-26 13:07:00,77.4,61.9,29.99,SSW,203,2.5,7.8,59,0.00,,,0.05,WUHU216HW,2013-06-26 20:07:00,
2013-06-26 13:08:00,77.8,61.8,29.99,SW,225,2.5,7.8,58,0.00,,,0.05,WUHU216HW,2013-06-26 20:08:00,
2013-06-26 13:09:00,78.1,62.2,29.99,SSW,203,1.6,7.8,58,0.00,,,0.05,WUHU216HW,2013-06-26 20:09:00,
2013-06-26 13:11:00,78.7,62.6,30.00,SW,225,2.2,7.8,58,0.00,,,0.05,WUHU216HW,2013-06-26 20:11:00,
2013-06-26 13:12:00,79.0,62.0,30.00,SSW,203,1.8,5.8,56,0.00,,,0.05,WUHU216HW,2013-06-26 20:12:00,
2013-06-26 13:13:00,79.0,62.0,30.00,SSW,203,4.0,5.8,56,0.00,,,0.05,WUHU216HW,2013-06-26 20:13:00,
2013-06-26 13:14:00,78.8,60.8,30.00,SSW,203,2.5,5.8,54,0.00,,,0.05,WUHU216HW,2013-06-26 20:14:00,
2013-06-26 13:16:00,78.7,60.6,30.00,SSW,203,9.8,9.8,54,0.00,,,0.05,WUHU216HW,2013-06-26 20:16:00,
2013-06-26 13:17:00,78.3,60.8,30.00,South,180,7.8,9.8,55,0.00,,,0.05,WUHU216HW,2013-06-26 20:17:00,
2013-06-26 13:19:00,78.1,60.1,30.00,South,180,6.5,9.8,54,0.00,,,0.05,WUHU216HW,2013-06-26 20:19:00,
2013-06-26 13:21:00,77.4,60.4,30.00,SSW,203,8.9,9.8,56,0.00,,,0.05,WUHU216HW,2013-06-26 20:21:00,
2013-06-26 13:22:00,77.4,60.9,30.00,South,180,8.7,9.8,57,0.00,,,0.05,WUHU216HW,2013-06-26 20:22:00,
2013-06-26 13:24:00,77.0,60.6,30.00,SSW,203,6.7,9.8,57,0.00,,,0.05,WUHU216HW,2013-06-26 20:24:00,
2013-06-26 13:26:00,76.3,59.9,30.00,South,180,10.3,10.3,57,0.00,,,0.05,WUHU216HW,2013-06-26 20:26:00,
2013-06-26 13:27:00,76.3,59.9,30.00,South,180,7.6,10.3,57,0.00,,,0.05,WUHU216HW,2013-06-26 20:27:00,
2013-06-26 13:28:00,76.0,60.1,30.00,SSW,203,5.4,10.3,58,0.00,,,0.05,WUHU216HW,2013-06-26 20:28:00,
2013-06-26 13:29:00,76.1,60.8,30.00,SSW,203,3.8,10.3,59,0.00,,,0.05,WUHU216HW,2013-06-26 20:29:00,
2013-06-26 13:30:00,76.1,59.8,30.00,SSW,203,4.3,10.3,57,0.00,,,0.05,WUHU216HW,2013-06-26 20:30:00,
2013-06-26 13:32:00,76.3,59.9,30.00,South,180,3.6,10.3,57,0.00,,,0.05,WUHU216HW,2013-06-26 20:32:00,
2013-06-26 13:33:00,76.5,60.6,30.00,SSE,158,9.8,10.3,58,0.00,,,0.05,WUHU216HW,2013-06-26 20:33:00,
2013-06-26 13:34:00,76.7,60.3,30.00,South,180,10.3,10.3,57,0.00,,,0.05,WUHU216HW,2013-06-26 20:34:00,
2013-06-26 13:35:00,76.7,59.8,30.00,South,180,11.4,13.6,56,0.00,,,0.05,WUHU216HW,2013-06-26 20:35:00,
2013-06-26 13:37:00,76.7,59.8,30.01,South,180,9.2,13.6,56,0.00,,,0.05,WUHU216HW,2013-06-26 20:37:00,
2013-06-26 13:38:00,76.7,59.2,30.01,SSE,158,8.5,13.6,55,0.00,,,0.05,WUHU216HW,2013-06-26 20:38:00,
2013-06-26 13:39:00,76.7,59.8,30.00,South,180,9.8,13.6,56,0.00,,,0.05,WUHU216HW,2013-06-26 20:39:00,
2013-06-26 13:40:00,76.5,59.1,30.00,SSW,203,11.9,14.1,55,0.00,,,0.05,WUHU216HW,2013-06-26 20:40:00,
2013-06-26 13:42:00,76.1,59.3,30.00,South,180,11.4,14.1,56,0.00,,,0.05,WUHU216HW,2013-06-26 20:42:00,
2013-06-26 13:44:00,75.8,59.5,30.00,South,180,10.5,14.1,57,0.00,,,0.05,WUHU216HW,2013-06-26 20:44:00,
2013-06-26 13:45:00,75.2,59.5,30.00,SSE,158,10.1,14.3,58,0.00,,,0.05,WUHU216HW,2013-06-26 20:45:00,
2013-06-26 13:47:00,74.5,58.8,30.00,SE,135,5.4,14.3,58,0.00,,,0.05,WUHU216HW,2013-06-26 20:47:00,
2013-06-26 13:48:00,74.7,59.4,30.00,SE,135,5.4,14.3,59,0.00,,,0.05,WUHU216HW,2013-06-26 20:48:00,
2013-06-26 13:49:00,74.5,59.2,30.00,SSE,158,8.5,14.3,59,0.00,,,0.05,WUHU216HW,2013-06-26 20:49:00,
2013-06-26 13:50:00,74.5,59.2,30.00,South,180,8.5,14.3,59,0.00,,,0.05,WUHU216HW,2013-06-26 20:50:00,
2013-06-26 13:52:00,74.5,59.2,30.01,SSE,158,10.7,14.3,59,0.00,,,0.05,WUHU216HW,2013-06-26 20:52:00,
2013-06-26 13:53:00,74.5,59.2,30.01,SSW,203,10.7,14.3,59,0.00,,,0.05,WUHU216HW,2013-06-26 20:53:00,
2013-06-26 13:55:00,74.0,59.2,30.01,SSE,158,13.2,14.3,60,0.00,,,0.05,WUHU216HW,2013-06-26 20:55:00,
2013-06-26 13:57:00,73.3,59.0,30.01,SE,135,9.6,13.2,61,0.00,,,0.05,WUHU216HW,2013-06-26 20:57:00,
2013-06-26 13:58:00,73.3,59.0,30.01,SSE,158,10.5,13.2,61,0.00,,,0.05,WUHU216HW,2013-06-26 20:58:00,
2013-06-26 14:00:00,73.1,61.0,30.01,South,180,10.7,13.2,66,0.00,,,0.05,WUHU216HW,2013-06-26 21:00:00,
2013-06-26 14:01:00,72.7,60.7,30.01,South,180,12.8,13.2,66,0.00,,,0.05,WUHU216HW,2013-06-26 21:01:00,
2013-06-26 14:03:00,72.2,61.0,30.01,South,180,9.6,14.8,68,0.00,,,0.05,WUHU216HW,2013-06-26 21:03:00,
2013-06-26 14:05:00,71.3,59.8,30.01,SSE,158,9.2,14.8,67,0.00,,,0.05,WUHU216HW,2013-06-26 21:05:00,
2013-06-26 14:06:00,71.1,60.0,30.01,SSE,158,8.7,14.8,68,0.00,,,0.05,WUHU216HW,2013-06-26 21:06:00,
2013-06-26 14:08:00,70.7,60.5,30.01,SSE,158,8.3,14.8,70,0.00,,,0.05,WUHU216HW,2013-06-26 21:08:00,
2013-06-26 14:10:00,70.6,60.3,30.01,SSE,158,9.4,14.8,70,0.00,,,0.05,WUHU216HW,2013-06-26 21:10:00,
2013-06-26 14:11:00,70.6,60.7,30.01,SSE,158,7.8,14.8,71,0.00,,,0.05,WUHU216HW,2013-06-26 21:11:00,
2013-06-26 14:13:00,70.4,60.5,30.01,SSE,158,10.5,12.8,71,0.00,,,0.05,WUHU216HW,2013-06-26 21:13:00,
2013-06-26 14:14:00,70.2,59.9,30.01,SSE,158,9.4,12.8,70,0.00,,,0.05,WUHU216HW,2013-06-26 21:14:00,
2013-06-26 14:16:00,70.2,59.5,30.01,SSE,158,11.0,11.0,69,0.00,,,0.05,WUHU216HW,2013-06-26 21:16:00,
2013-06-26 14:19:00,70.7,60.5,30.01,South,180,9.6,13.0,70,0.00,,,0.05,WUHU216HW,2013-06-26 21:19:00,
2013-06-26 14:21:00,71.1,60.0,30.01,SSE,158,9.6,13.0,68,0.00,,,0.05,WUHU216HW,2013-06-26 21:21:00,
2013-06-26 14:24:00,71.8,60.7,30.01,South,180,7.6,13.0,68,0.00,,,0.05,WUHU216HW,2013-06-26 21:24:00,
2013-06-26 14:26:00,72.0,60.8,30.01,SSE,158,4.7,13.0,68,0.00,,,0.05,WUHU216HW,2013-06-26 21:26:00,
2013-06-26 14:29:00,73.1,61.0,30.01,South,180,5.4,10.1,66,0.00,,,0.05,WUHU216HW,2013-06-26 21:29:00,
2013-06-26 14:31:00,73.6,61.1,30.01,South,180,7.4,10.1,65,0.00,,,0.05,WUHU216HW,2013-06-26 21:31:00,
2013-06-26 14:34:00,73.8,60.9,30.01,South,180,7.2,9.2,64,0.00,,,0.05,WUHU216HW,2013-06-26 21:34:00,
2013-06-26 14:36:00,73.8,60.4,30.01,South,180,9.2,9.8,63,0.00,,,0.05,WUHU216HW,2013-06-26 21:36:00,
2013-06-26 14:37:00,73.8,60.0,30.01,SE,135,8.9,9.8,62,0.00,,,0.05,WUHU216HW,2013-06-26 21:37:00,
2013-06-26 14:39:00,73.4,59.6,30.01,SSE,158,5.8,9.8,62,0.00,,,0.05,WUHU216HW,2013-06-26 21:39:00,
2013-06-26 14:41:00,73.3,59.9,30.01,SSE,158,8.1,9.8,63,0.00,,,0.05,WUHU216HW,2013-06-26 21:41:00,
2013-06-26 14:42:00,73.3,60.3,30.01,SSE,158,8.1,9.8,64,0.00,,,0.05,WUHU216HW,2013-06-26 21:42:00,
2013-06-26 14:44:00,73.3,60.3,30.02,South,180,8.5,10.3,64,0.00,,,0.05,WUHU216HW,2013-06-26 21:44:00,
2013-06-26 14:46:00,73.3,59.9,30.02,SE,135,8.3,10.3,63,0.00,,,0.05,WUHU216HW,2013-06-26 21:46:00,
2013-06-26 14:47:00,73.3,59.4,30.02,SSE,158,9.6,10.3,62,0.00,,,0.05,WUHU216HW,2013-06-26 21:47:00,
2013-06-26 14:50:00,74.0,60.6,30.02,South,180,11.2,13.2,63,0.00,,,0.05,WUHU216HW,2013-06-26 21:50:00,
2013-06-26 14:51:00,74.2,59.4,30.02,SSE,158,8.5,13.2,60,0.00,,,0.05,WUHU216HW,2013-06-26 21:51:00,
2013-06-26 14:52:00,74.3,59.6,30.02,South,180,9.8,13.2,60,0.00,,,0.05,WUHU216HW,2013-06-26 21:52:00,
2013-06-26 14:53:00,74.5,59.8,30.02,South,180,8.7,13.2,60,0.00,,,0.05,WUHU216HW,2013-06-26 21:53:00,
2013-06-26 14:55:00,74.9,59.6,30.01,SSE,158,6.5,13.2,59,0.00,,,0.05,WUHU216HW,2013-06-26 21:55:00,
2013-06-26 14:56:00,75.2,59.5,30.01,SSE,158,8.3,13.2,58,0.00,,,0.05,WUHU216HW,2013-06-26 21:56:00,
2013-06-26 14:57:00,75.4,59.7,30.01,SSE,158,8.1,13.2,58,0.00,,,0.05,WUHU216HW,2013-06-26 21:57:00,
2013-06-26 14:58:00,75.6,59.3,30.01,South,180,7.8,13.2,57,0.00,,,0.05,WUHU216HW,2013-06-26 21:58:00,
2013-06-26 15:00:00,76.1,59.8,30.01,South,180,5.4,11.6,57,0.00,,,0.05,WUHU216HW,2013-06-26 22:00:00,
2013-06-26 15:01:00,76.3,59.4,30.01,SSE,158,5.8,10.5,56,0.00,,,0.05,WUHU216HW,2013-06-26 22:01:00,
2013-06-26 15:02:00,76.3,59.0,30.01,South,180,5.4,10.5,55,0.00,,,0.05,WUHU216HW,2013-06-26 22:02:00,
2013-06-26 15:03:00,76.5,60.1,30.01,East,90,2.5,10.5,57,0.00,,,0.05,WUHU216HW,2013-06-26 22:03:00,
2013-06-26 15:05:00,77.0,59.6,30.01,South,180,6.5,9.6,55,0.00,,,0.05,WUHU216HW,2013-06-26 22:05:00,
2013-06-26 15:07:00,77.2,59.8,30.01,South,180,7.4,9.6,55,0.00,,,0.05,WUHU216HW,2013-06-26 22:07:00,
2013-06-26 15:08:00,77.4,60.0,30.01,SSE,158,7.2,9.6,55,0.00,,,0.05,WUHU216HW,2013-06-26 22:08:00,
2013-06-26 15:11:00,77.2,59.8,30.01,South,180,11.4,11.9,55,0.00,,,0.05,WUHU216HW,2013-06-26 22:11:00,
2013-06-26 15:12:00,77.2,60.3,30.02,South,180,9.6,11.9,56,0.00,,,0.05,WUHU216HW,2013-06-26 22:12:00,
2013-06-26 15:13:00,77.2,60.3,30.02,South,180,8.5,11.9,56,0.00,,,0.05,WUHU216HW,2013-06-26 22:13:00,
2013-06-26 15:16:00,77.6,60.1,30.02,SSE,158,7.2,11.9,55,0.00,,,0.05,WUHU216HW,2013-06-26 22:16:00,
2013-06-26 15:17:00,77.8,59.8,30.02,South,180,6.9,11.9,54,0.00,,,0.05,WUHU216HW,2013-06-26 22:17:00,
2013-06-26 15:18:00,77.8,59.2,30.02,South,180,9.8,11.9,53,0.00,,,0.05,WUHU216HW,2013-06-26 22:18:00,
2013-06-26 15:21:00,77.4,60.0,30.02,SSW,203,3.4,11.0,55,0.00,,,0.05,WUHU216HW,2013-06-26 22:21:00,
2013-06-26 15:22:00,77.0,59.6,30.02,SE,135,2.9,11.0,55,0.00,,,0.05,WUHU216HW,2013-06-26 22:22:00,
2013-06-26 15:23:00,76.9,60.0,30.02,SSE,158,5.1,11.0,56,0.00,,,0.05,WUHU216HW,2013-06-26 22:23:00,
2013-06-26 15:26:00,76.0,59.1,30.03,SSW,203,11.9,11.9,56,0.00,,,0.05,WUHU216HW,2013-06-26 22:26:00,
2013-06-26 15:27:00,75.6,59.3,30.03,SSW,203,11.4,13.2,57,0.00,,,0.05,WUHU216HW,2013-06-26 22:27:00,
2013-06-26 15:28:00,75.2,58.5,30.02,South,180,12.3,13.2,56,0.00,,,0.05,WUHU216HW,2013-06-26 22:28:00,
2013-06-26 15:29:00,75.2,59.0,30.02,South,180,12.8,13.2,57,0.00,,,0.05,WUHU216HW,2013-06-26 22:29:00,
2013-06-26 15:31:00,74.3,58.6,30.02,South,180,15.0,15.4,58,0.00,,,0.05,WUHU216HW,2013-06-26 22:31:00,
2013-06-26 15:33:00,73.8,58.5,30.03,SSE,158,12.5,15.4,59,0.00,,,0.05,WUHU216HW,2013-06-26 22:33:00,
2013-06-26 15:34:00,73.6,58.9,30.02,SSE,158,12.5,15.4,60,0.00,,,0.05,WUHU216HW,2013-06-26 22:34:00,
2013-06-26 15:36:00,72.9,58.2,30.03,South,180,11.9,15.4,60,0.00,,,0.05,WUHU216HW,2013-06-26 22:36:00,
2013-06-26 15:38:00,72.5,59.2,30.03,SSW,203,9.8,15.4,63,0.00,,,0.05,WUHU216HW,2013-06-26 22:38:00,
2013-06-26 15:39:00,72.4,59.5,30.03,SSW,203,9.2,15.4,64,0.00,,,0.05,WUHU216HW,2013-06-26 22:39:00,
2013-06-26 15:41:00,72.4,59.1,30.03,SSW,203,6.3,15.0,63,0.00,,,0.05,WUHU216HW,2013-06-26 22:41:00,
2013-06-26 15:43:00,72.4,59.5,30.03,SW,225,8.3,15.0,64,0.00,,,0.05,WUHU216HW,2013-06-26 22:43:00,
2013-06-26 15:45:00,72.0,59.1,30.03,SSW,203,12.5,14.8,64,0.00,,,0.05,WUHU216HW,2013-06-26 22:45:00,
2013-06-26 15:46:00,71.8,59.4,30.03,SW,225,6.3,12.8,65,0.00,,,0.05,WUHU216HW,2013-06-26 22:46:00,
2013-06-26 15:48:00,71.5,59.5,30.03,SSW,203,6.0,12.5,66,0.00,,,0.05,WUHU216HW,2013-06-26 22:48:00,
2013-06-26 15:49:00,71.5,59.5,30.03,SSW,203,10.5,12.5,66,0.00,,,0.05,WUHU216HW,2013-06-26 22:49:00,
2013-06-26 15:50:00,71.3,59.8,30.03,SSW,203,4.7,12.5,67,0.00,,,0.05,WUHU216HW,2013-06-26 22:50:00,
2013-06-26 15:51:00,71.1,59.6,30.03,SSW,203,10.1,12.5,67,0.00,,,0.05,WUHU216HW,2013-06-26 22:51:00,
2013-06-26 15:53:00,70.9,59.0,30.03,SSW,203,6.7,12.5,66,0.00,,,0.05,WUHU216HW,2013-06-26 22:53:00,
2013-06-26 15:54:00,70.9,59.0,30.03,SSW,203,7.2,12.5,66,0.00,,,0.05,WUHU216HW,2013-06-26 22:54:00,
2013-06-26 15:55:00,70.9,59.9,30.03,SSW,203,6.0,10.5,68,0.00,,,0.05,WUHU216HW,2013-06-26 22:55:00,
2013-06-26 15:56:00,70.9,59.4,30.03,SSW,203,6.3,10.5,67,0.00,,,0.05,WUHU216HW,2013-06-26 22:56:00,
2013-06-26 15:59:00,71.1,59.6,30.03,SSW,203,7.2,10.7,67,0.00,,,0.05,WUHU216HW,2013-06-26 22:59:00,
2013-06-26 16:00:00,71.3,60.1,30.03,SSW,203,6.5,10.7,68,0.00,,,0.05,WUHU216HW,2013-06-26 23:00:00,
2013-06-26 16:01:00,71.5,60.3,30.03,SSW,203,5.1,10.7,68,0.00,,,0.05,WUHU216HW,2013-06-26 23:01:00,
2013-06-26 16:02:00,71.5,60.0,30.04,SSW,203,5.4,10.7,67,0.00,,,0.05,WUHU216HW,2013-06-26 23:02:00,
2013-06-26 16:04:00,71.6,60.5,30.04,South,180,8.5,10.7,68,0.00,,,0.05,WUHU216HW,2013-06-26 23:04:00,
2013-06-26 16:05:00,71.6,60.1,30.04,SSW,203,6.3,10.7,67,0.00,,,0.05,WUHU216HW,2013-06-26 23:05:00,
2013-06-26 16:06:00,71.6,60.1,30.04,South,180,8.5,10.7,67,0.00,,,0.05,WUHU216HW,2013-06-26 23:06:00,
2013-06-26 16:07:00,71.6,60.1,30.04,South,180,7.2,9.4,67,0.00,,,0.05,WUHU216HW,2013-06-26 23:07:00,
2013-06-26 16:09:00,71.6,60.5,30.04,SSE,158,12.3,12.3,68,0.00,,,0.05,WUHU216HW,2013-06-26 23:09:00,
2013-06-26 16:10:00,71.6,59.7,30.04,SSW,203,7.6,12.3,66,0.00,,,0.05,WUHU216HW,2013-06-26 23:10:00,
2013-06-26 16:11:00,71.6,59.7,30.04,SSW,203,6.9,12.3,66,0.00,,,0.05,WUHU216HW,2013-06-26 23:11:00,
2013-06-26 16:12:00,71.6,60.1,30.04,South,180,9.6,12.3,67,0.00,,,0.05,WUHU216HW,2013-06-26 23:12:00,
2013-06-26 16:14:00,72.0,60.4,30.04,South,180,12.3,12.3,67,0.00,,,0.05,WUHU216HW,2013-06-26 23:14:00,
2013-06-26 16:15:00,72.2,61.0,30.04,South,180,12.3,12.3,68,0.00,,,0.05,WUHU216HW,2013-06-26 23:15:00,
2013-06-26 16:16:00,72.7,61.1,30.04,South,180,9.2,12.3,67,0.00,,,0.05,WUHU216HW,2013-06-26 23:16:00,
2013-06-26 16:17:00,73.1,61.0,30.04,South,180,9.2,12.3,66,0.00,,,0.05,WUHU216HW,2013-06-26 23:17:00,
2013-06-26 16:19:00,73.6,61.1,30.04,South,180,10.7,12.5,65,0.00,,,0.05,WUHU216HW,2013-06-26 23:19:00,
2013-06-26 16:20:00,73.6,61.1,30.04,SSW,203,10.5,12.5,65,0.00,,,0.05,WUHU216HW,2013-06-26 23:20:00,
2013-06-26 16:21:00,73.8,60.4,30.04,South,180,10.5,12.5,63,0.00,,,0.05,WUHU216HW,2013-06-26 23:21:00,
2013-06-26 16:22:00,74.0,60.6,30.04,South,180,8.5,12.5,63,0.00,,,0.05,WUHU216HW,2013-06-26 23:22:00,
2013-06-26 16:25:00,74.7,60.9,30.04,South,180,6.5,12.5,62,0.00,,,0.05,WUHU216HW,2013-06-26 23:25:00,
2013-06-26 16:26:00,74.9,60.6,30.04,SSE,158,10.7,12.5,61,0.00,,,0.05,WUHU216HW,2013-06-26 23:26:00,
2013-06-26 16:27:00,75.1,60.3,30.04,SE,135,6.3,12.5,60,0.00,,,0.05,WUHU216HW,2013-06-26 23:27:00,
2013-06-26 16:30:00,75.2,60.5,30.04,SSE,158,7.4,12.3,60,0.00,,,0.05,WUHU216HW,2013-06-26 23:30:00,
2013-06-26 16:31:00,75.1,59.8,30.04,South,180,7.6,12.3,59,0.00,,,0.05,WUHU216HW,2013-06-26 23:31:00,
2013-06-26 16:32:00,75.1,59.8,30.04,South,180,7.6,12.3,59,0.00,,,0.05,WUHU216HW,2013-06-26 23:32:00,
2013-06-26 16:33:00,74.9,59.6,30.04,South,180,9.8,12.3,59,0.00,,,0.05,WUHU216HW,2013-06-26 23:33:00,
2013-06-26 16:35:00,74.7,59.4,30.04,South,180,10.3,12.3,59,0.00,,,0.05,WUHU216HW,2013-06-26 23:35:00,
2013-06-26 16:37:00,74.5,59.8,30.04,South,180,8.1,11.6,60,0.00,,,0.05,WUHU216HW,2013-06-26 23:37:00,
2013-06-26 16:38:00,74.5,60.2,30.04,South,180,7.8,11.6,61,0.00,,,0.05,WUHU216HW,2013-06-26 23:38:00,
2013-06-26 16:40:00,74.7,59.9,30.04,South,180,8.9,11.6,60,0.00,,,0.05,WUHU216HW,2013-06-26 23:40:00,
2013-06-26 16:42:00,74.5,59.8,30.04,SSE,158,9.6,11.6,60,0.00,,,0.05,WUHU216HW,2013-06-26 23:42:00,
2013-06-26 16:43:00,74.3,59.6,30.04,South,180,11.0,11.6,60,0.00,,,0.05,WUHU216HW,2013-06-26 23:43:00,
2013-06-26 16:45:00,74.0,58.7,30.04,South,180,10.7,11.4,59,0.00,,,0.05,WUHU216HW,2013-06-26 23:45:00,
2013-06-26 16:47:00,73.8,58.5,30.04,SSW,203,9.2,14.8,59,0.00,,,0.05,WUHU216HW,2013-06-26 23:47:00,
2013-06-26 16:48:00,73.8,59.0,30.04,South,180,11.2,14.8,60,0.00,,,0.05,WUHU216HW,2013-06-26 23:48:00,
2013-06-26 16:49:00,73.6,58.9,30.04,South,180,11.4,14.8,60,0.00,,,0.05,WUHU216HW,2013-06-26 23:49:00,
2013-06-26 16:50:00,73.6,58.9,30.04,South,180,11.4,14.8,60,0.00,,,0.05,WUHU216HW,2013-06-26 23:50:00,
2013-06-26 16:51:00,73.6,58.3,30.04,South,180,9.8,14.8,59,0.00,,,0.05,WUHU216HW,2013-06-26 23:51:00,
2013-06-26 16:52:00,73.4,58.7,30.04,SSW,203,12.1,14.8,60,0.00,,,0.05,WUHU216HW,2013-06-26 23:52:00,
2013-06-26 16:53:00,73.4,58.7,30.04,South,180,9.6,14.8,60,0.00,,,0.05,WUHU216HW,2013-06-26 23:53:00,
2013-06-26 16:54:00,73.4,58.7,30.04,South,180,11.9,14.8,60,0.00,,,0.05,WUHU216HW,2013-06-26 23:54:00,
2013-06-26 16:55:00,73.1,58.8,30.04,South,180,9.4,14.8,61,0.00,,,0.05,WUHU216HW,2013-06-26 23:55:00,
2013-06-26 16:56:00,73.1,58.8,30.04,South,180,9.2,14.8,61,0.00,,,0.05,WUHU216HW,2013-06-26 23:56:00,
2013-06-26 16:57:00,72.9,58.7,30.05,South,180,7.2,13.6,61,0.00,,,0.05,WUHU216HW,2013-06-26 23:57:00,
2013-06-26 16:58:00,72.7,58.1,30.05,SSW,203,7.4,13.6,60,0.00,,,0.05,WUHU216HW,2013-06-26 23:58:00,
2013-06-26 16:59:00,72.7,58.1,30.05,SSW,203,7.4,13.6,60,0.00,,,0.05,WUHU216HW,2013-06-26 23:59:00,
2013-06-26 17:01:00,72.5,58.8,30.05,SSW,203,6.9,14.8,62,0.00,,,0.05,WUHU216HW,2013-06-27 00:01:00,
2013-06-26 17:03:00,72.5,58.8,30.04,SSW,203,7.6,14.8,62,0.00,,,0.05,WUHU216HW,2013-06-27 00:03:00,
2013-06-26 17:04:00,72.4,58.1,30.05,SSE,158,10.7,14.8,61,0.00,,,0.05,WUHU216HW,2013-06-27 00:04:00,
2013-06-26 17:06:00,72.4,57.7,30.05,South,180,11.0,14.8,60,0.00,,,0.05,WUHU216HW,2013-06-27 00:06:00,
2013-06-26 17:08:00,72.4,58.1,30.05,SSE,158,9.6,14.8,61,0.00,,,0.05,WUHU216HW,2013-06-27 00:08:00,
2013-06-26 17:09:00,72.4,58.1,30.05,South,180,11.0,14.8,61,0.00,,,0.05,WUHU216HW,2013-06-27 00:09:00,
2013-06-26 17:10:00,72.4,58.6,30.05,SSW,203,9.8,12.8,62,0.00,,,0.05,WUHU216HW,2013-06-27 00:10:00,
2013-06-26 17:11:00,72.4,58.1,30.05,South,180,10.3,12.5,61,0.00,,,0.05,WUHU216HW,2013-06-27 00:11:00,
2013-06-26 17:13:00,72.4,58.1,30.05,South,180,8.7,13.2,61,0.00,,,0.05,WUHU216HW,2013-06-27 00:13:00,
2013-06-26 17:14:00,72.4,57.7,30.05,South,180,12.8,13.2,60,0.00,,,0.05,WUHU216HW,2013-06-27 00:14:00,
2013-06-26 17:15:00,72.4,58.1,30.05,South,180,9.8,13.2,61,0.00,,,0.05,WUHU216HW,2013-06-27 00:15:00,
2013-06-26 17:16:00,72.4,58.1,30.05,South,180,11.4,13.2,61,0.00,,,0.05,WUHU216HW,2013-06-27 00:16:00,
2013-06-26 17:18:00,72.4,58.6,30.05,South,180,10.3,13.2,62,0.00,,,0.05,WUHU216HW,2013-06-27 00:18:00,
2013-06-26 17:19:00,72.4,58.1,30.05,South,180,10.7,13.2,61,0.00,,,0.05,WUHU216HW,2013-06-27 00:19:00,
2013-06-26 17:20:00,72.7,58.5,30.05,SSE,158,8.5,13.2,61,0.00,,,0.05,WUHU216HW,2013-06-27 00:20:00,
2013-06-26 17:21:00,73.1,59.2,30.05,SSE,158,7.8,13.2,62,0.00,,,0.05,WUHU216HW,2013-06-27 00:21:00,
2013-06-26 17:22:00,73.1,59.2,30.05,SSE,158,11.0,13.2,62,0.00,,,0.05,WUHU216HW,2013-06-27 00:22:00,
2013-06-26 17:23:00,73.3,59.0,30.05,South,180,10.5,12.8,61,0.00,,,0.05,WUHU216HW,2013-06-27 00:23:00,
2013-06-26 17:24:00,73.6,58.9,30.05,SE,135,5.4,12.8,60,0.00,,,0.05,WUHU216HW,2013-06-27 00:24:00,
2013-06-26 17:26:00,73.8,59.0,30.05,SE,135,6.9,12.1,60,0.00,,,0.05,WUHU216HW,2013-06-27 00:26:00,
2013-06-26 17:27:00,73.6,57.9,30.05,SSE,158,9.6,12.1,58,0.00,,,0.05,WUHU216HW,2013-06-27 00:27:00,
2013-06-26 17:28:00,73.6,57.9,30.05,South,180,9.8,11.0,58,0.00,,,0.05,WUHU216HW,2013-06-27 00:28:00,
2013-06-26 17:29:00,73.8,58.1,30.05,SSE,158,8.7,11.0,58,0.00,,,0.05,WUHU216HW,2013-06-27 00:29:00,
2013-06-26 17:31:00,74.0,58.2,30.05,SSE,158,9.8,11.0,58,0.00,,,0.05,WUHU216HW,2013-06-27 00:31:00,
2013-06-26 17:32:00,74.2,58.9,30.05,South,180,6.9,11.0,59,0.00,,,0.05,WUHU216HW,2013-06-27 00:32:00,
2013-06-26 17:34:00,74.2,58.4,30.05,South,180,6.9,10.5,58,0.00,,,0.05,WUHU216HW,2013-06-27 00:34:00,
2013-06-26 17:35:00,74.2,58.9,30.05,South,180,6.5,10.5,59,0.00,,,0.05,WUHU216HW,2013-06-27 00:35:00,
2013-06-26 17:36:00,74.0,59.2,30.05,SSE,158,4.0,10.5,60,0.00,,,0.05,WUHU216HW,2013-06-27 00:36:00,
2013-06-26 17:37:00,74.0,58.7,30.05,SSE,158,5.4,10.5,59,0.00,,,0.05,WUHU216HW,2013-06-27 00:37:00,
2013-06-26 17:39:00,73.6,58.3,30.05,South,180,8.5,10.5,59,0.00,,,0.05,WUHU216HW,2013-06-27 00:39:00,
2013-06-26 17:40:00,73.6,58.9,30.06,SSE,158,7.2,10.5,60,0.00,,,0.05,WUHU216HW,2013-06-27 00:40:00,
2013-06-26 17:41:00,73.4,58.1,30.05,ESE,113,3.8,10.5,59,0.00,,,0.05,WUHU216HW,2013-06-27 00:41:00,
2013-06-26 17:42:00,73.4,58.1,30.05,SSE,158,5.4,10.5,59,0.00,,,0.05,WUHU216HW,2013-06-27 00:42:00,
2013-06-26 17:44:00,73.4,58.1,30.05,SE,135,7.4,12.1,59,0.00,,,0.05,WUHU216HW,2013-06-27 00:44:00,
2013-06-26 17:45:00,73.4,58.1,30.05,SE,135,7.4,12.1,59,0.00,,,0.05,WUHU216HW,2013-06-27 00:45:00,
2013-06-26 17:46:00,73.6,57.9,30.05,South,180,7.8,12.1,58,0.00,,,0.05,WUHU216HW,2013-06-27 00:46:00,
2013-06-26 17:47:00,73.8,58.5,30.05,SE,135,4.9,12.1,59,0.00,,,0.05,WUHU216HW,2013-06-27 00:47:00,
2013-06-26 17:49:00,74.0,57.7,30.05,SSE,158,6.0,12.1,57,0.00,,,0.05,WUHU216HW,2013-06-27 00:49:00,
2013-06-26 17:50:00,74.0,58.2,30.05,SSE,158,6.5,12.1,58,0.00,,,0.05,WUHU216HW,2013-06-27 00:50:00,
2013-06-26 17:51:00,74.0,57.7,30.05,SSE,158,8.9,12.1,57,0.00,,,0.05,WUHU216HW,2013-06-27 00:51:00,
2013-06-26 17:52:00,74.2,58.9,30.05,SSE,158,10.3,12.1,59,0.00,,,0.05,WUHU216HW,2013-06-27 00:52:00,
2013-06-26 17:54:00,74.2,57.9,30.05,SSE,158,6.9,10.3,57,0.00,,,0.05,WUHU216HW,2013-06-27 00:54:00,
2013-06-26 17:55:00,74.3,58.6,30.06,SSE,158,5.6,10.3,58,0.00,,,0.05,WUHU216HW,2013-06-27 00:55:00,
2013-06-26 17:56:00,74.5,58.8,30.05,South,180,4.0,10.3,58,0.00,,,0.05,WUHU216HW,2013-06-27 00:56:00,
2013-06-26 17:57:00,74.3,58.1,30.06,SSE,158,6.3,10.3,57,0.00,,,0.05,WUHU216HW,2013-06-27 00:57:00,
2013-06-26 17:59:00,74.3,58.1,30.06,SE,135,4.9,10.3,57,0.00,,,0.05,WUHU216HW,2013-06-27 00:59:00,
2013-06-26 18:00:00,74.2,57.9,30.06,SSE,158,4.9,10.3,57,0.00,,,0.05,WUHU216HW,2013-06-27 01:00:00,
2013-06-26 18:01:00,74.2,57.9,30.06,SSE,158,6.9,10.3,57,0.00,,,0.05,WUHU216HW,2013-06-27 01:01:00,
2013-06-26 18:02:00,74.2,58.4,30.06,SSE,158,9.4,9.4,58,0.00,,,0.05,WUHU216HW,2013-06-27 01:02:00,
2013-06-26 18:03:00,74.2,58.4,30.06,SSE,158,9.4,9.4,58,0.00,,,0.05,WUHU216HW,2013-06-27 01:03:00,
2013-06-26 18:05:00,74.0,57.3,30.06,SE,135,6.0,9.4,56,0.00,,,0.05,WUHU216HW,2013-06-27 01:05:00,
2013-06-26 18:06:00,74.0,57.7,30.06,SE,135,6.9,9.4,57,0.00,,,0.05,WUHU216HW,2013-06-27 01:06:00,
2013-06-26 18:08:00,74.0,57.7,30.05,SE,135,3.4,9.4,57,0.00,,,0.05,WUHU216HW,2013-06-27 01:08:00,
2013-06-26 18:10:00,74.0,57.7,30.05,SE,135,6.3,9.4,57,0.00,,,0.05,WUHU216HW,2013-06-27 01:10:00,
2013-06-26 18:11:00,74.0,58.2,30.06,South,180,8.9,9.4,58,0.00,,,0.05,WUHU216HW,2013-06-27 01:11:00,
2013-06-26 18:12:00,74.2,58.9,30.06,SE,135,4.7,9.4,59,0.00,,,0.05,WUHU216HW,2013-06-27 01:12:00,
2013-06-26 18:13:00,74.2,58.4,30.05,SSE,158,5.4,9.4,58,0.00,,,0.05,WUHU216HW,2013-06-27 01:13:00,
2013-06-26 18:15:00,73.8,58.5,30.05,SSE,158,3.8,8.9,59,0.00,,,0.05,WUHU216HW,2013-06-27 01:15:00,
2013-06-26 18:16:00,73.6,58.3,30.06,SSE,158,5.1,8.9,59,0.00,,,0.05,WUHU216HW,2013-06-27 01:16:00,
2013-06-26 18:17:00,73.6,58.3,30.05,SSE,158,5.1,8.9,59,0.00,,,0.05,WUHU216HW,2013-06-27 01:17:00,
2013-06-26 18:18:00,73.6,58.9,30.06,ESE,113,2.5,8.9,60,0.00,,,0.05,WUHU216HW,2013-06-27 01:18:00,
2013-06-26 18:20:00,73.8,59.0,30.06,SE,135,2.7,8.9,60,0.00,,,0.05,WUHU216HW,2013-06-27 01:20:00,
2013-06-26 18:21:00,73.8,59.0,30.06,SE,135,2.7,8.9,60,0.00,,,0.05,WUHU216HW,2013-06-27 01:21:00,
2013-06-26 18:22:00,73.8,59.0,30.06,SE,135,2.7,5.8,60,0.00,,,0.05,WUHU216HW,2013-06-27 01:22:00,
2013-06-26 18:23:00,74.0,59.2,30.06,SE,135,2.2,5.8,60,0.00,,,0.05,WUHU216HW,2013-06-27 01:23:00,
2013-06-26 18:25:00,73.8,58.5,30.06,SE,135,2.2,5.1,59,0.00,,,0.05,WUHU216HW,2013-06-27 01:25:00,
2013-06-26 18:26:00,73.8,59.0,30.06,SE,135,2.2,5.1,60,0.00,,,0.05,WUHU216HW,2013-06-27 01:26:00,
2013-06-26 18:27:00,73.8,59.0,30.06,SE,135,2.2,3.6,60,0.00,,,0.05,WUHU216HW,2013-06-27 01:27:00,
2013-06-26 18:28:00,73.8,59.5,30.06,North,0,0.0,3.6,61,0.00,,,0.05,WUHU216HW,2013-06-27 01:28:00,
2013-06-26 18:29:00,73.8,59.5,30.06,North,0,0.0,3.6,61,0.00,,,0.05,WUHU216HW,2013-06-27 01:29:00,
2013-06-26 18:30:00,73.8,59.5,30.07,North,0,0.0,2.7,61,0.00,,,0.05,WUHU216HW,2013-06-27 01:30:00,
2013-06-26 18:31:00,73.8,59.5,30.06,North,0,0.0,2.7,61,0.00,,,0.05,WUHU216HW,2013-06-27 01:31:00,
2013-06-26 18:32:00,73.8,59.5,30.06,North,0,0.0,2.7,61,0.00,,,0.05,WUHU216HW,2013-06-27 01:32:00,
2013-06-26 18:34:00,74.0,59.7,30.06,North,0,0.0,2.2,61,0.00,,,0.05,WUHU216HW,2013-06-27 01:34:00,
2013-06-26 18:35:00,74.0,60.1,30.07,North,0,0.0,2.2,62,0.00,,,0.05,WUHU216HW,2013-06-27 01:35:00,
2013-06-26 18:37:00,74.0,59.7,30.07,North,0,0.0,2.2,61,0.00,,,0.05,WUHU216HW,2013-06-27 01:37:00,
2013-06-26 18:39:00,73.6,58.9,30.06,North,0,0.0,0.0,60,0.00,,,0.05,WUHU216HW,2013-06-27 01:39:00,
2013-06-26 18:40:00,73.1,58.8,30.07,North,0,0.0,0.0,61,0.00,,,0.05,WUHU216HW,2013-06-27 01:40:00,
2013-06-26 18:42:00,73.1,58.8,30.07,North,0,0.0,0.0,61,0.00,,,0.05,WUHU216HW,2013-06-27 01:42:00,
2013-06-26 18:44:00,73.1,60.1,30.07,North,0,0.0,0.0,64,0.00,,,0.05,WUHU216HW,2013-06-27 01:44:00,
2013-06-26 18:46:00,73.1,59.2,30.07,North,0,0.0,0.0,62,0.00,,,0.05,WUHU216HW,2013-06-27 01:46:00,
2013-06-26 18:47:00,73.1,57.9,30.07,North,0,0.0,0.0,59,0.00,,,0.05,WUHU216HW,2013-06-27 01:47:00,
2013-06-26 18:49:00,73.3,59.0,30.07,North,0,0.0,0.0,61,0.00,,,0.05,WUHU216HW,2013-06-27 01:49:00,
2013-06-26 18:51:00,73.3,59.0,30.07,North,0,0.0,0.0,61,0.00,,,0.05,WUHU216HW,2013-06-27 01:51:00,
2013-06-26 18:52:00,73.1,58.3,30.07,North,0,0.0,0.0,60,0.00,,,0.05,WUHU216HW,2013-06-27 01:52:00,
2013-06-26 18:54:00,72.9,58.2,30.07,North,0,0.0,0.0,60,0.00,,,0.05,WUHU216HW,2013-06-27 01:54:00,
2013-06-26 18:55:00,72.7,58.1,30.07,North,0,0.0,0.0,60,0.00,,,0.05,WUHU216HW,2013-06-27 01:55:00,
2013-06-26 18:57:00,72.7,59.0,30.07,North,0,0.0,0.0,62,0.00,,,0.05,WUHU216HW,2013-06-27 01:57:00,
2013-06-26 18:59:00,72.4,59.5,30.07,North,0,0.0,0.0,64,0.00,,,0.05,WUHU216HW,2013-06-27 01:59:00,
2013-06-26 19:00:00,72.4,59.5,30.07,North,0,0.0,0.0,64,0.00,,,0.05,WUHU216HW,2013-06-27 02:00:00,
2013-06-26 19:02:00,72.2,58.9,30.07,North,0,0.0,0.0,63,0.00,,,0.05,WUHU216HW,2013-06-27 02:02:00,
2013-06-26 19:05:00,72.2,58.9,30.07,North,0,0.0,0.0,63,0.00,,,0.05,WUHU216HW,2013-06-27 02:05:00,
2013-06-26 19:07:00,72.5,59.2,30.07,North,0,0.0,0.0,63,0.00,,,0.05,WUHU216HW,2013-06-27 02:07:00,
2013-06-26 19:10:00,72.5,59.2,30.07,North,0,0.0,0.0,63,0.00,,,0.05,WUHU216HW,2013-06-27 02:10:00,
2013-06-26 19:12:00,72.7,59.0,30.07,North,0,0.0,0.0,62,0.00,,,0.05,WUHU216HW,2013-06-27 02:12:00,
2013-06-26 19:13:00,72.7,58.5,30.07,North,0,0.0,0.0,61,0.00,,,0.05,WUHU216HW,2013-06-27 02:13:00,
2013-06-26 19:15:00,72.7,59.0,30.07,North,0,0.0,0.0,62,0.00,,,0.05,WUHU216HW,2013-06-27 02:15:00,
2013-06-26 19:17:00,72.5,58.8,30.07,North,0,0.0,0.0,62,0.00,,,0.05,WUHU216HW,2013-06-27 02:17:00,
2013-06-26 19:18:00,72.5,58.8,30.07,North,0,0.0,0.0,62,0.00,,,0.05,WUHU216HW,2013-06-27 02:18:00,
2013-06-26 19:20:00,72.7,59.4,30.08,North,0,0.0,0.0,63,0.00,,,0.05,WUHU216HW,2013-06-27 02:20:00,
2013-06-26 19:22:00,72.7,59.4,30.08,North,0,0.0,0.0,63,0.00,,,0.05,WUHU216HW,2013-06-27 02:22:00,
2013-06-26 19:23:00,72.7,59.0,30.08,North,0,0.0,0.0,62,0.00,,,0.05,WUHU216HW,2013-06-27 02:23:00,
2013-06-26 19:25:00,72.7,59.0,30.07,North,0,0.0,0.0,62,0.00,,,0.05,WUHU216HW,2013-06-27 02:25:00,
2013-06-26 19:27:00,72.4,59.5,30.07,North,0,0.0,0.0,64,0.00,,,0.05,WUHU216HW,2013-06-27 02:27:00,
2013-06-26 19:28:00,72.4,59.5,30.07,North,0,0.0,0.0,64,0.00,,,0.05,WUHU216HW,2013-06-27 02:28:00,
2013-06-26 19:30:00,71.8,59.4,30.08,North,0,0.0,0.0,65,0.00,,,0.05,WUHU216HW,2013-06-27 02:30:00,
2013-06-26 19:32:00,71.6,59.7,30.08,North,0,0.0,0.0,66,0.00,,,0.05,WUHU216HW,2013-06-27 02:32:00,
2013-06-26 19:33:00,71.5,59.5,30.08,North,0,0.0,0.0,66,0.00,,,0.05,WUHU216HW,2013-06-27 02:33:00,
2013-06-26 19:35:00,71.3,58.9,30.07,North,0,0.0,0.0,65,0.00,,,0.05,WUHU216HW,2013-06-27 02:35:00,
2013-06-26 19:36:00,71.1,58.7,30.07,North,0,0.0,0.0,65,0.00,,,0.05,WUHU216HW,2013-06-27 02:36:00,
2013-06-26 19:37:00,70.9,58.5,30.08,North,0,0.0,0.0,65,0.00,,,0.05,WUHU216HW,2013-06-27 02:37:00,
2013-06-26 19:38:00,70.9,59.0,30.08,North,0,0.0,0.0,66,0.00,,,0.05,WUHU216HW,2013-06-27 02:38:00,
2013-06-26 19:41:00,70.7,58.8,30.08,North,0,0.0,0.0,66,0.00,,,0.05,WUHU216HW,2013-06-27 02:41:00,
2013-06-26 19:43:00,70.6,58.6,30.08,North,0,0.0,0.0,66,0.00,,,0.05,WUHU216HW,2013-06-27 02:43:00,
2013-06-26 19:46:00,70.4,58.1,30.08,SSW,203,3.6,4.7,65,0.00,,,0.05,WUHU216HW,2013-06-27 02:46:00,
2013-06-26 19:48:00,70.2,58.2,30.08,SSW,203,3.6,4.7,66,0.00,,,0.05,WUHU216HW,2013-06-27 02:48:00,
2013-06-26 19:51:00,70.0,58.2,30.08,SSW,203,2.9,4.7,66,0.00,,,0.05,WUHU216HW,2013-06-27 02:51:00,
2013-06-26 19:53:00,70.0,58.5,30.08,SSW,203,3.4,4.7,67,0.00,,,0.05,WUHU216HW,2013-06-27 02:53:00,
2013-06-26 19:54:00,69.8,58.3,30.08,SSW,203,2.2,4.7,67,0.00,,,0.05,WUHU216HW,2013-06-27 02:54:00,
2013-06-26 19:57:00,69.7,57.8,30.08,SSW,203,3.4,5.4,66,0.00,,,0.05,WUHU216HW,2013-06-27 02:57:00,
2013-06-26 19:58:00,69.7,58.1,30.08,SSW,203,4.7,5.4,67,0.00,,,0.05,WUHU216HW,2013-06-27 02:58:00,
2013-06-26 19:59:00,69.5,58.0,30.08,South,180,3.4,5.4,67,0.00,,,0.05,WUHU216HW,2013-06-27 02:59:00,
2013-06-26 20:02:00,69.5,58.0,30.08,SSW,203,3.4,5.4,67,0.00,,,0.05,WUHU216HW,2013-06-27 03:02:00,
2013-06-26 20:03:00,69.5,58.0,30.08,SSW,203,2.9,5.4,67,0.00,,,0.05,WUHU216HW,2013-06-27 03:03:00,
2013-06-26 20:04:00,69.5,58.0,30.08,SSW,203,2.9,5.4,67,0.00,,,0.05,WUHU216HW,2013-06-27 03:04:00,
2013-06-26 20:07:00,69.1,56.8,30.08,SW,225,3.4,4.7,65,0.00,,,0.05,WUHU216HW,2013-06-27 03:07:00,
2013-06-26 20:08:00,69.1,56.8,30.08,SW,225,1.8,4.7,65,0.00,,,0.05,WUHU216HW,2013-06-27 03:08:00,
2013-06-26 20:09:00,69.1,56.8,30.08,SW,225,1.8,4.7,65,0.00,,,0.05,WUHU216HW,2013-06-27 03:09:00,
2013-06-26 20:12:00,68.6,57.6,30.08,SSW,203,4.3,4.9,68,0.00,,,0.05,WUHU216HW,2013-06-27 03:12:00,
2013-06-26 20:13:00,68.6,57.6,30.08,SSW,203,4.3,4.9,68,0.00,,,0.05,WUHU216HW,2013-06-27 03:13:00,
2013-06-26 20:14:00,68.4,57.4,30.08,SSW,203,4.0,4.9,68,0.00,,,0.05,WUHU216HW,2013-06-27 03:14:00,
2013-06-26 20:17:00,68.2,57.2,30.08,SW,225,2.7,5.1,68,0.00,,,0.05,WUHU216HW,2013-06-27 03:17:00,
2013-06-26 20:18:00,68.0,57.1,30.08,SW,225,3.4,5.1,68,0.00,,,0.05,WUHU216HW,2013-06-27 03:18:00,
2013-06-26 20:19:00,68.0,57.1,30.08,South,180,1.8,5.1,68,0.00,,,0.05,WUHU216HW,2013-06-27 03:19:00,
2013-06-26 20:20:00,68.2,57.2,30.08,SSW,203,2.9,5.1,68,0.00,,,0.05,WUHU216HW,2013-06-27 03:20:00,
2013-06-26 20:22:00,68.0,57.5,30.08,SSW,203,4.3,5.1,69,0.00,,,0.05,WUHU216HW,2013-06-27 03:22:00,
2013-06-26 20:23:00,68.0,57.5,30.08,SSW,203,3.8,5.1,69,0.00,,,0.05,WUHU216HW,2013-06-27 03:23:00,
2013-06-26 20:24:00,68.0,57.5,30.08,SSW,203,3.8,5.1,69,0.00,,,0.05,WUHU216HW,2013-06-27 03:24:00,
2013-06-26 20:25:00,68.0,58.0,30.08,South,180,3.4,5.1,70,0.00,,,0.05,WUHU216HW,2013-06-27 03:25:00,
2013-06-26 20:27:00,68.0,57.5,30.08,SSW,203,3.1,5.6,69,0.00,,,0.05,WUHU216HW,2013-06-27 03:27:00,
2013-06-26 20:28:00,67.9,57.3,30.08,SSW,203,4.0,5.6,69,0.00,,,0.05,WUHU216HW,2013-06-27 03:28:00,
2013-06-26 20:29:00,67.9,57.3,30.09,SSW,203,3.8,5.6,69,0.00,,,0.05,WUHU216HW,2013-06-27 03:29:00,
2013-06-26 20:30:00,67.9,56.9,30.09,SW,225,3.6,5.6,68,0.00,,,0.05,WUHU216HW,2013-06-27 03:30:00,
2013-06-26 20:33:00,67.7,57.2,30.08,SSW,203,2.5,5.6,69,0.00,,,0.05,WUHU216HW,2013-06-27 03:33:00,
2013-06-26 20:34:00,67.7,57.2,30.09,South,180,3.8,5.6,69,0.00,,,0.05,WUHU216HW,2013-06-27 03:34:00,
2013-06-26 20:35:00,67.5,57.4,30.09,SSW,203,1.6,5.6,70,0.00,,,0.05,WUHU216HW,2013-06-27 03:35:00,
2013-06-26 20:38:00,67.5,57.4,30.09,South,180,3.6,4.7,70,0.00,,,0.05,WUHU216HW,2013-06-27 03:38:00,
2013-06-26 20:39:00,67.5,57.4,30.09,SSW,203,1.8,4.5,70,0.00,,,0.05,WUHU216HW,2013-06-27 03:39:00,
2013-06-26 20:40:00,67.5,57.4,30.09,SSW,203,1.6,4.5,70,0.00,,,0.05,WUHU216HW,2013-06-27 03:40:00,
2013-06-26 20:43:00,67.3,57.2,30.08,SSW,203,4.7,4.7,70,0.00,,,0.05,WUHU216HW,2013-06-27 03:43:00,
2013-06-26 20:44:00,67.3,57.2,30.09,SSE,158,5.4,5.4,70,0.00,,,0.05,WUHU216HW,2013-06-27 03:44:00,
2013-06-26 20:45:00,67.3,57.2,30.09,SSW,203,5.1,5.4,70,0.00,,,0.05,WUHU216HW,2013-06-27 03:45:00,
2013-06-26 20:48:00,67.3,57.2,30.09,SSW,203,2.5,5.4,70,0.00,,,0.05,WUHU216HW,2013-06-27 03:48:00,
2013-06-26 20:49:00,67.3,57.2,30.09,SSW,203,2.7,5.4,70,0.00,,,0.05,WUHU216HW,2013-06-27 03:49:00,
2013-06-26 20:50:00,67.1,57.1,30.09,SSW,203,4.0,5.4,70,0.00,,,0.05,WUHU216HW,2013-06-27 03:50:00,
2013-06-26 20:53:00,67.1,57.8,30.09,SSE,158,4.3,6.0,72,0.00,,,0.05,WUHU216HW,2013-06-27 03:53:00,
2013-06-26 20:54:00,67.1,57.4,30.09,South,180,6.7,6.7,71,0.00,,,0.05,WUHU216HW,2013-06-27 03:54:00,
2013-06-26 20:55:00,67.1,57.4,30.09,SSW,203,6.3,6.7,71,0.00,,,0.05,WUHU216HW,2013-06-27 03:55:00,
2013-06-26 20:58:00,67.0,57.2,30.09,South,180,3.4,6.7,71,0.00,,,0.05,WUHU216HW,2013-06-27 03:58:00,
2013-06-26 20:59:00,67.0,57.2,30.09,South,180,2.2,6.7,71,0.00,,,0.05,WUHU216HW,2013-06-27 03:59:00,
2013-06-26 21:00:00,67.0,57.2,30.09,SSW,203,2.2,6.7,71,0.00,,,0.05,WUHU216HW,2013-06-27 04:00:00,
2013-06-26 21:01:00,67.0,57.2,30.09,SSW,203,1.8,6.7,71,0.00,,,0.05,WUHU216HW,2013-06-27 04:01:00,
2013-06-26 21:02:00,67.0,57.2,30.09,SSW,203,3.1,6.7,71,0.00,,,0.05,WUHU216HW,2013-06-27 04:02:00,
2013-06-26 21:06:00,66.6,56.5,30.09,SSE,158,1.8,5.4,70,0.00,,,0.05,WUHU216HW,2013-06-27 04:06:00,
2013-06-26 21:07:00,66.6,56.5,30.09,SSE,158,0.4,4.7,70,0.00,,,0.05,WUHU216HW,2013-06-27 04:07:00,
2013-06-26 21:11:00,66.6,56.5,30.09,NNW,338,0.0,4.0,70,0.00,,,0.05,WUHU216HW,2013-06-27 04:11:00,
2013-06-26 21:12:00,66.4,56.3,30.09,NNW,338,0.0,4.0,70,0.00,,,0.05,WUHU216HW,2013-06-27 04:12:00,
2013-06-26 21:16:00,66.2,56.2,30.10,SSW,203,0.0,1.8,70,0.00,,,0.05,WUHU216HW,2013-06-27 04:16:00,
2013-06-26 21:17:00,66.2,56.2,30.10,South,180,0.0,1.1,70,0.00,,,0.05,WUHU216HW,2013-06-27 04:17:00,
2013-06-26 21:21:00,66.1,56.8,30.10,ENE,68,1.1,1.6,72,0.00,,,0.05,WUHU216HW,2013-06-27 04:21:00,
2013-06-26 21:22:00,66.1,56.8,30.10,ENE,68,0.4,1.6,72,0.00,,,0.05,WUHU216HW,2013-06-27 04:22:00,
2013-06-26 21:26:00,65.9,56.6,30.10,NNE,23,1.3,2.5,72,0.00,,,0.05,WUHU216HW,2013-06-27 04:26:00,
2013-06-26 21:27:00,65.9,56.6,30.10,NNE,23,0.7,2.5,72,0.00,,,0.05,WUHU216HW,2013-06-27 04:27:00,
2013-06-26 21:28:00,65.7,56.4,30.10,NNE,23,1.1,2.5,72,0.00,,,0.05,WUHU216HW,2013-06-27 04:28:00,
2013-06-26 21:31:00,65.5,56.3,30.10,ESE,113,0.9,2.5,72,0.00,,,0.05,WUHU216HW,2013-06-27 04:31:00,
2013-06-26 21:32:00,65.5,56.3,30.10,ENE,68,1.1,2.5,72,0.00,,,0.05,WUHU216HW,2013-06-27 04:32:00,
2013-06-26 21:33:00,65.3,56.1,30.10,ENE,68,1.6,2.5,72,0.00,,,0.05,WUHU216HW,2013-06-27 04:33:00,
2013-06-26 21:36:00,65.3,56.4,30.10,NE,45,1.6,2.7,73,0.00,,,0.05,WUHU216HW,2013-06-27 04:36:00,
2013-06-26 21:37:00,65.2,56.3,30.10,NNE,23,2.0,2.7,73,0.00,,,0.05,WUHU216HW,2013-06-27 04:37:00,
2013-06-26 21:38:00,65.2,56.3,30.10,ENE,68,1.3,2.7,73,0.00,,,0.05,WUHU216HW,2013-06-27 04:38:00,
2013-06-26 21:39:00,65.2,56.3,30.10,East,90,1.6,2.7,73,0.00,,,0.05,WUHU216HW,2013-06-27 04:39:00,
2013-06-26 21:41:00,65.0,56.2,30.10,ENE,68,0.4,2.7,73,0.00,,,0.05,WUHU216HW,2013-06-27 04:41:00,
2013-06-26 21:42:00,65.0,56.2,30.10,ENE,68,0.0,2.7,73,0.00,,,0.05,WUHU216HW,2013-06-27 04:42:00,
2013-06-26 21:43:00,65.0,56.2,30.10,ENE,68,0.0,2.7,73,0.00,,,0.05,WUHU216HW,2013-06-27 04:43:00,
2013-06-26 21:44:00,64.8,56.0,30.10,ENE,68,0.2,2.7,73,0.00,,,0.05,WUHU216HW,2013-06-27 04:44:00,
2013-06-26 21:46:00,64.8,56.0,30.10,ENE,68,0.0,2.0,73,0.00,,,0.05,WUHU216HW,2013-06-27 04:46:00,
2013-06-26 21:48:00,64.8,56.0,30.10,ENE,68,0.0,1.6,73,0.00,,,0.05,WUHU216HW,2013-06-27 04:48:00,
2013-06-26 21:49:00,64.6,55.8,30.10,NE,45,0.0,1.1,73,0.00,,,0.05,WUHU216HW,2013-06-27 04:49:00,
2013-06-26 21:51:00,64.4,55.6,30.10,ESE,113,1.1,1.1,73,0.00,,,0.05,WUHU216HW,2013-06-27 04:51:00,
2013-06-26 21:53:00,64.4,55.6,30.10,SE,135,0.0,1.1,73,0.00,,,0.05,WUHU216HW,2013-06-27 04:53:00,
2013-06-26 21:54:00,64.3,55.4,30.10,East,90,0.0,1.1,73,0.00,,,0.05,WUHU216HW,2013-06-27 04:54:00,
2013-06-26 21:57:00,64.1,55.6,30.10,ENE,68,0.7,1.1,74,0.00,,,0.05,WUHU216HW,2013-06-27 04:57:00,
2013-06-26 21:58:00,64.1,55.6,30.10,ENE,68,0.4,1.1,74,0.00,,,0.05,WUHU216HW,2013-06-27 04:58:00,
2013-06-26 21:59:00,63.9,55.4,30.10,ENE,68,0.0,1.1,74,0.00,,,0.05,WUHU216HW,2013-06-27 04:59:00,
2013-06-26 22:02:00,63.7,55.3,30.10,ENE,68,0.0,0.7,74,0.00,,,0.05,WUHU216HW,2013-06-27 05:02:00,
2013-06-26 22:03:00,63.7,55.3,30.10,ENE,68,0.0,0.7,74,0.00,,,0.05,WUHU216HW,2013-06-27 05:03:00,
2013-06-26 22:04:00,63.7,55.3,30.11,ENE,68,1.1,1.1,74,0.00,,,0.05,WUHU216HW,2013-06-27 05:04:00,
2013-06-26 22:07:00,63.5,55.1,30.11,East,90,0.0,1.1,74,0.00,,,0.05,WUHU216HW,2013-06-27 05:07:00,
2013-06-26 22:08:00,63.5,55.1,30.11,East,90,0.0,1.1,74,0.00,,,0.05,WUHU216HW,2013-06-27 05:08:00,
2013-06-26 22:09:00,63.4,54.9,30.11,East,90,1.1,1.1,74,0.00,,,0.05,WUHU216HW,2013-06-27 05:09:00,
2013-06-26 22:12:00,63.4,55.3,30.11,NE,45,2.2,2.2,75,0.00,,,0.05,WUHU216HW,2013-06-27 05:12:00,
2013-06-26 22:13:00,63.4,55.3,30.11,ENE,68,1.8,2.5,75,0.00,,,0.05,WUHU216HW,2013-06-27 05:13:00,
2013-06-26 22:14:00,63.4,55.3,30.11,ENE,68,1.3,2.5,75,0.00,,,0.05,WUHU216HW,2013-06-27 05:14:00,
2013-06-26 22:17:00,63.4,54.9,30.10,ENE,68,1.1,2.5,74,0.00,,,0.05,WUHU216HW,2013-06-27 05:17:00,
2013-06-26 22:18:00,63.2,55.1,30.10,NNE,23,1.3,2.5,75,0.00,,,0.05,WUHU216HW,2013-06-27 05:18:00,
2013-06-26 22:19:00,63.2,55.1,30.11,ENE,68,0.7,2.5,75,0.00,,,0.05,WUHU216HW,2013-06-27 05:19:00,
2013-06-26 22:23:00,63.2,55.1,30.11,East,90,1.6,1.6,75,0.00,,,0.05,WUHU216HW,2013-06-27 05:23:00,
2013-06-26 22:24:00,63.2,55.1,30.11,East,90,1.6,1.6,75,0.00,,,0.05,WUHU216HW,2013-06-27 05:24:00,
2013-06-26 22:25:00,63.2,55.1,30.11,ENE,68,0.9,1.6,75,0.00,,,0.05,WUHU216HW,2013-06-27 05:25:00,
2013-06-26 22:28:00,63.0,54.9,30.11,NE,45,1.1,1.8,75,0.00,,,0.05,WUHU216HW,2013-06-27 05:28:00,
2013-06-26 22:29:00,63.0,54.9,30.11,NE,45,1.1,1.8,75,0.00,,,0.05,WUHU216HW,2013-06-27 05:29:00,
2013-06-26 22:30:00,63.0,54.9,30.11,ENE,68,1.3,1.8,75,0.00,,,0.05,WUHU216HW,2013-06-27 05:30:00,
2013-06-26 22:33:00,63.0,54.9,30.11,ENE,68,1.1,1.8,75,0.00,,,0.05,WUHU216HW,2013-06-27 05:33:00,
2013-06-26 22:34:00,63.0,54.9,30.11,ENE,68,1.8,1.8,75,0.00,,,0.05,WUHU216HW,2013-06-27 05:34:00,
2013-06-26 22:35:00,63.0,54.9,30.11,ENE,68,1.8,1.8,75,0.00,,,0.05,WUHU216HW,2013-06-27 05:35:00,
2013-06-26 22:38:00,62.8,55.1,30.11,ENE,68,0.7,1.8,76,0.00,,,0.05,WUHU216HW,2013-06-27 05:38:00,
2013-06-26 22:39:00,62.8,55.1,30.11,ENE,68,0.7,1.8,76,0.00,,,0.05,WUHU216HW,2013-06-27 05:39:00,
2013-06-26 22:40:00,62.8,55.1,30.11,East,90,1.1,1.8,76,0.00,,,0.05,WUHU216HW,2013-06-27 05:40:00,
2013-06-26 22:41:00,62.8,55.1,30.11,East,90,1.1,1.8,76,0.00,,,0.05,WUHU216HW,2013-06-27 05:41:00,
2013-06-26 22:44:00,62.6,54.5,30.11,ENE,68,1.1,1.8,75,0.00,,,0.05,WUHU216HW,2013-06-27 05:44:00,
2013-06-26 22:45:00,62.6,54.5,30.11,East,90,0.9,1.8,75,0.00,,,0.05,WUHU216HW,2013-06-27 05:45:00,
2013-06-26 22:46:00,62.5,54.4,30.11,ENE,68,1.8,1.8,75,0.00,,,0.05,WUHU216HW,2013-06-27 05:46:00,
2013-06-26 22:49:00,62.3,54.5,30.11,East,90,1.1,1.8,76,0.00,,,0.05,WUHU216HW,2013-06-27 05:49:00,
2013-06-26 22:50:00,62.3,54.2,30.11,East,90,1.1,1.8,75,0.00,,,0.05,WUHU216HW,2013-06-27 05:50:00,
2013-06-26 22:51:00,62.3,54.5,30.11,East,90,1.1,1.8,76,0.00,,,0.05,WUHU216HW,2013-06-27 05:51:00,
2013-06-26 22:54:00,62.1,54.5,30.11,ENE,68,1.1,1.8,76,0.00,,,0.05,WUHU216HW,2013-06-27 05:54:00,
2013-06-26 22:55:00,62.1,54.5,30.11,ENE,68,1.1,1.8,76,0.00,,,0.05,WUHU216HW,2013-06-27 05:55:00,
2013-06-26 22:56:00,62.1,54.5,30.11,NE,45,1.1,1.3,76,0.00,,,0.05,WUHU216HW,2013-06-27 05:56:00,
2013-06-26 22:59:00,61.9,54.3,30.11,NE,45,1.8,1.8,76,0.00,,,0.05,WUHU216HW,2013-06-27 05:59:00,
2013-06-26 23:00:00,61.9,54.3,30.11,NE,45,1.1,1.8,76,0.00,,,0.05,WUHU216HW,2013-06-27 06:00:00,
2013-06-26 23:01:00,61.9,54.3,30.11,NE,45,1.1,1.8,76,0.00,,,0.05,WUHU216HW,2013-06-27 06:01:00,
2013-06-26 23:04:00,61.7,54.5,30.11,ENE,68,1.3,1.8,77,0.00,,,0.05,WUHU216HW,2013-06-27 06:04:00,
2013-06-26 23:05:00,61.6,53.9,30.11,ENE,68,1.3,1.8,76,0.00,,,0.05,WUHU216HW,2013-06-27 06:05:00,
2013-06-26 23:06:00,61.6,53.9,30.11,ENE,68,1.6,1.8,76,0.00,,,0.05,WUHU216HW,2013-06-27 06:06:00,
2013-06-26 23:10:00,61.6,54.3,30.11,ENE,68,1.3,1.8,77,0.00,,,0.05,WUHU216HW,2013-06-27 06:10:00,
2013-06-26 23:11:00,61.6,54.3,30.11,ENE,68,1.1,1.8,77,0.00,,,0.05,WUHU216HW,2013-06-27 06:11:00,
2013-06-26 23:12:00,61.6,54.3,30.11,ENE,68,0.9,1.8,77,0.00,,,0.05,WUHU216HW,2013-06-27 06:12:00,
2013-06-26 23:16:00,61.6,54.3,30.12,East,90,0.7,1.8,77,0.00,,,0.05,WUHU216HW,2013-06-27 06:16:00,
2013-06-26 23:17:00,61.6,54.3,30.12,East,90,0.7,1.8,77,0.00,,,0.05,WUHU216HW,2013-06-27 06:17:00,
2013-06-26 23:21:00,61.6,54.6,30.12,NE,45,0.7,2.5,78,0.00,,,0.05,WUHU216HW,2013-06-27 06:21:00,
2013-06-26 23:22:00,61.4,54.5,30.12,NE,45,0.7,2.5,78,0.00,,,0.05,WUHU216HW,2013-06-27 06:22:00,
2013-06-26 23:26:00,61.4,54.5,30.11,NE,45,0.0,2.5,78,0.00,,,0.05,WUHU216HW,2013-06-27 06:26:00,
2013-06-26 23:27:00,61.4,54.5,30.11,NE,45,0.0,2.5,78,0.00,,,0.05,WUHU216HW,2013-06-27 06:27:00,
2013-06-26 23:31:00,61.4,54.8,30.11,ENE,68,0.7,1.1,79,0.00,,,0.05,WUHU216HW,2013-06-27 06:31:00,
2013-06-26 23:32:00,61.4,54.8,30.11,ENE,68,0.7,1.1,79,0.00,,,0.05,WUHU216HW,2013-06-27 06:32:00,
2013-06-26 23:36:00,61.4,54.8,30.11,ENE,68,1.1,1.1,79,0.00,,,0.05,WUHU216HW,2013-06-27 06:36:00,
2013-06-26 23:37:00,61.4,54.8,30.11,ENE,68,1.3,1.3,79,0.00,,,0.05,WUHU216HW,2013-06-27 06:37:00,
2013-06-26 23:41:00,61.4,54.8,30.11,ENE,68,1.1,1.3,79,0.00,,,0.05,WUHU216HW,2013-06-27 06:41:00,
2013-06-26 23:42:00,61.4,54.8,30.11,ENE,68,1.1,1.3,79,0.00,,,0.05,WUHU216HW,2013-06-27 06:42:00,
2013-06-26 23:43:00,61.4,54.8,30.11,NE,45,1.3,1.3,79,0.00,,,0.05,WUHU216HW,2013-06-27 06:43:00,
2013-06-26 23:46:00,61.4,54.8,30.12,ENE,68,2.9,2.9,79,0.00,,,0.05,WUHU216HW,2013-06-27 06:46:00,
2013-06-26 23:47:00,61.4,54.8,30.12,East,90,2.5,2.9,79,0.00,,,0.05,WUHU216HW,2013-06-27 06:47:00,
2013-06-26 23:48:00,61.4,54.8,30.12,East,90,2.5,2.9,79,0.00,,,0.05,WUHU216HW,2013-06-27 06:48:00,
2013-06-26 23:52:00,61.4,54.8,30.12,ENE,68,2.5,2.9,79,0.00,,,0.05,WUHU216HW,2013-06-27 06:52:00,
2013-06-26 23:53:00,61.4,54.8,30.12,ENE,68,2.5,2.9,79,0.00,,,0.05,WUHU216HW,2013-06-27 06:53:00,
2013-06-26 23:57:00,61.2,54.7,30.12,ENE,68,1.3,2.7,79,0.00,,,0.05,WUHU216HW,2013-06-27 06:57:00,
2013-06-26 23:58:00,61.2,54.7,30.12,ENE,68,1.3,2.7,79,0.00,,,0.05,WUHU216HW,2013-06-27 06:58:00,
2013-06-26 23:59:00,61.2,54.7,30.12,NNE,23,0.4,2.7,79,0.00,,,0.05,WUHU216HW,2013-06-27 06:59:00,